<?xml version="1.0" encoding="UTF-8" standalone="no" ?>
<gpx xmlns="http://www.topografix.com/GPX/1/1" xmlns:xsi="http://www.w3.org/2001/XMLSchema-instance" xsi:schemaLocation="http://www.topografix.com/GPX/1/1 http://www.topografix.com/GPX/1/1/gpx.xsd" version="1.1" creator="VisuGPX - https://www.visugpx.com">
  <metadata>
    <name>Pic du col Taillat</name>
    <desc><![CDATA[Pic du col Taillat]]></desc>
  </metadata>
  <trk>
    <name><![CDATA[Rando-course]]></name>
    <cmt><![CDATA[Pla de Montcam]]></cmt>
    <trkseg>
      <trkpt lat="42.74265" lon="1.61459">
        <ele>1772.3278808594</ele>
        <time>2012-03-10T13:07:58Z</time>
      </trkpt>
      <trkpt lat="42.74265" lon="1.61459">
        <ele>1771.8469238281</ele>
        <time>2012-03-10T13:07:59Z</time>
      </trkpt>
      <trkpt lat="42.74266" lon="1.61458">
        <ele>1768.482421875</ele>
        <time>2012-03-10T13:08:15Z</time>
      </trkpt>
      <trkpt lat="42.74265" lon="1.61457">
        <ele>1766.5598144531</ele>
        <time>2012-03-10T13:08:26Z</time>
      </trkpt>
      <trkpt lat="42.74264" lon="1.61457">
        <ele>1768.0017089844</ele>
        <time>2012-03-10T13:08:55Z</time>
      </trkpt>
      <trkpt lat="42.7426" lon="1.61455">
        <ele>1767.5209960938</ele>
        <time>2012-03-10T13:09:02Z</time>
      </trkpt>
      <trkpt lat="42.74258" lon="1.61454">
        <ele>1767.5209960938</ele>
        <time>2012-03-10T13:09:07Z</time>
      </trkpt>
      <trkpt lat="42.74257" lon="1.61454">
        <ele>1768.9631347656</ele>
        <time>2012-03-10T13:09:28Z</time>
      </trkpt>
      <trkpt lat="42.74257" lon="1.61455">
        <ele>1769.4438476562</ele>
        <time>2012-03-10T13:09:48Z</time>
      </trkpt>
      <trkpt lat="42.74257" lon="1.61455">
        <ele>1769.4438476562</ele>
        <time>2012-03-10T13:09:51Z</time>
      </trkpt>
      <trkpt lat="42.74257" lon="1.61453">
        <ele>1767.5209960938</ele>
        <time>2012-03-10T13:09:58Z</time>
      </trkpt>
      <trkpt lat="42.74256" lon="1.6145">
        <ele>1766.5598144531</ele>
        <time>2012-03-10T13:10:00Z</time>
      </trkpt>
      <trkpt lat="42.74255" lon="1.61435">
        <ele>1762.7145996094</ele>
        <time>2012-03-10T13:10:08Z</time>
      </trkpt>
      <trkpt lat="42.74256" lon="1.61422">
        <ele>1758.8693847656</ele>
        <time>2012-03-10T13:10:16Z</time>
      </trkpt>
      <trkpt lat="42.74257" lon="1.61413">
        <ele>1756.4660644531</ele>
        <time>2012-03-10T13:10:23Z</time>
      </trkpt>
      <trkpt lat="42.74256" lon="1.61401">
        <ele>1754.0627441406</ele>
        <time>2012-03-10T13:10:33Z</time>
      </trkpt>
      <trkpt lat="42.74257" lon="1.61394">
        <ele>1752.1398925781</ele>
        <time>2012-03-10T13:10:39Z</time>
      </trkpt>
      <trkpt lat="42.74257" lon="1.61382">
        <ele>1749.7368164062</ele>
        <time>2012-03-10T13:10:48Z</time>
      </trkpt>
      <trkpt lat="42.74258" lon="1.61368">
        <ele>1746.3723144531</ele>
        <time>2012-03-10T13:10:58Z</time>
      </trkpt>
      <trkpt lat="42.7426" lon="1.6136">
        <ele>1743.9689941406</ele>
        <time>2012-03-10T13:11:05Z</time>
      </trkpt>
      <trkpt lat="42.74259" lon="1.61355">
        <ele>1743.48828125</ele>
        <time>2012-03-10T13:11:11Z</time>
      </trkpt>
      <trkpt lat="42.74259" lon="1.61347">
        <ele>1742.5270996094</ele>
        <time>2012-03-10T13:11:18Z</time>
      </trkpt>
      <trkpt lat="42.74258" lon="1.61344">
        <ele>1741.0849609375</ele>
        <time>2012-03-10T13:11:25Z</time>
      </trkpt>
      <trkpt lat="42.74261" lon="1.61335">
        <ele>1738.681640625</ele>
        <time>2012-03-10T13:11:32Z</time>
      </trkpt>
      <trkpt lat="42.7426" lon="1.61329">
        <ele>1738.2009277344</ele>
        <time>2012-03-10T13:11:37Z</time>
      </trkpt>
      <trkpt lat="42.74259" lon="1.61315">
        <ele>1735.7976074219</ele>
        <time>2012-03-10T13:11:46Z</time>
      </trkpt>
      <trkpt lat="42.74259" lon="1.61306">
        <ele>1733.3942871094</ele>
        <time>2012-03-10T13:11:53Z</time>
      </trkpt>
      <trkpt lat="42.7426" lon="1.61299">
        <ele>1731.9523925781</ele>
        <time>2012-03-10T13:11:58Z</time>
      </trkpt>
      <trkpt lat="42.74264" lon="1.61294">
        <ele>1730.0297851562</ele>
        <time>2012-03-10T13:12:04Z</time>
      </trkpt>
      <trkpt lat="42.74264" lon="1.61286">
        <ele>1728.587890625</ele>
        <time>2012-03-10T13:12:10Z</time>
      </trkpt>
      <trkpt lat="42.74266" lon="1.61277">
        <ele>1726.1845703125</ele>
        <time>2012-03-10T13:12:18Z</time>
      </trkpt>
      <trkpt lat="42.74267" lon="1.61273">
        <ele>1725.2231445312</ele>
        <time>2012-03-10T13:12:24Z</time>
      </trkpt>
      <trkpt lat="42.74267" lon="1.61271">
        <ele>1724.7426757812</ele>
        <time>2012-03-10T13:12:29Z</time>
      </trkpt>
      <trkpt lat="42.74266" lon="1.6127">
        <ele>1725.2231445312</ele>
        <time>2012-03-10T13:12:33Z</time>
      </trkpt>
      <trkpt lat="42.74265" lon="1.61267">
        <ele>1724.2619628906</ele>
        <time>2012-03-10T13:12:39Z</time>
      </trkpt>
      <trkpt lat="42.74265" lon="1.61265">
        <ele>1722.8198242188</ele>
        <time>2012-03-10T13:12:48Z</time>
      </trkpt>
      <trkpt lat="42.74264" lon="1.61264">
        <ele>1722.8198242188</ele>
        <time>2012-03-10T13:12:55Z</time>
      </trkpt>
      <trkpt lat="42.74263" lon="1.6126">
        <ele>1720.8972167969</ele>
        <time>2012-03-10T13:13:02Z</time>
      </trkpt>
      <trkpt lat="42.74261" lon="1.61254">
        <ele>1718.974609375</ele>
        <time>2012-03-10T13:13:09Z</time>
      </trkpt>
      <trkpt lat="42.74259" lon="1.61251">
        <ele>1716.5712890625</ele>
        <time>2012-03-10T13:13:15Z</time>
      </trkpt>
      <trkpt lat="42.74258" lon="1.6125">
        <ele>1716.5712890625</ele>
        <time>2012-03-10T13:13:20Z</time>
      </trkpt>
      <trkpt lat="42.74257" lon="1.61247">
        <ele>1715.1293945312</ele>
        <time>2012-03-10T13:13:30Z</time>
      </trkpt>
      <trkpt lat="42.74256" lon="1.61243">
        <ele>1713.6872558594</ele>
        <time>2012-03-10T13:13:36Z</time>
      </trkpt>
      <trkpt lat="42.74259" lon="1.61242">
        <ele>1713.6872558594</ele>
        <time>2012-03-10T13:13:41Z</time>
      </trkpt>
      <trkpt lat="42.74262" lon="1.61241">
        <ele>1714.16796875</ele>
        <time>2012-03-10T13:13:47Z</time>
      </trkpt>
      <trkpt lat="42.74263" lon="1.61238">
        <ele>1714.6486816406</ele>
        <time>2012-03-10T13:13:53Z</time>
      </trkpt>
      <trkpt lat="42.74263" lon="1.61238">
        <ele>1714.6486816406</ele>
        <time>2012-03-10T13:13:57Z</time>
      </trkpt>
      <trkpt lat="42.74286" lon="1.605">
        <ele>1468.5512695312</ele>
        <time>2012-03-10T13:36:10Z</time>
      </trkpt>
      <trkpt lat="42.74286" lon="1.605">
        <ele>1468.5512695312</ele>
        <time>2012-03-10T13:36:11Z</time>
      </trkpt>
      <trkpt lat="42.74287" lon="1.605">
        <ele>1466.1477050781</ele>
        <time>2012-03-10T13:36:19Z</time>
      </trkpt>
      <trkpt lat="42.74286" lon="1.605">
        <ele>1466.1477050781</ele>
        <time>2012-03-10T13:36:27Z</time>
      </trkpt>
      <trkpt lat="42.74286" lon="1.605">
        <ele>1466.1477050781</ele>
        <time>2012-03-10T13:36:36Z</time>
      </trkpt>
      <trkpt lat="42.74287" lon="1.60501">
        <ele>1465.1865234375</ele>
        <time>2012-03-10T13:36:46Z</time>
      </trkpt>
      <trkpt lat="42.74287" lon="1.605">
        <ele>1465.1865234375</ele>
        <time>2012-03-10T13:36:53Z</time>
      </trkpt>
      <trkpt lat="42.74287" lon="1.60498">
        <ele>1466.6284179688</ele>
        <time>2012-03-10T13:37:10Z</time>
      </trkpt>
      <trkpt lat="42.74287" lon="1.60499">
        <ele>1466.6284179688</ele>
        <time>2012-03-10T13:37:16Z</time>
      </trkpt>
      <trkpt lat="42.74287" lon="1.60498">
        <ele>1466.6284179688</ele>
        <time>2012-03-10T13:37:35Z</time>
      </trkpt>
      <trkpt lat="42.74288" lon="1.60498">
        <ele>1468.5512695312</ele>
        <time>2012-03-10T13:37:50Z</time>
      </trkpt>
      <trkpt lat="42.74288" lon="1.60497">
        <ele>1468.5512695312</ele>
        <time>2012-03-10T13:37:56Z</time>
      </trkpt>
      <trkpt lat="42.74287" lon="1.60498">
        <ele>1466.6284179688</ele>
        <time>2012-03-10T13:38:24Z</time>
      </trkpt>
      <trkpt lat="42.74286" lon="1.60499">
        <ele>1464.2250976562</ele>
        <time>2012-03-10T13:38:52Z</time>
      </trkpt>
      <trkpt lat="42.74286" lon="1.60498">
        <ele>1465.6672363281</ele>
        <time>2012-03-10T13:39:25Z</time>
      </trkpt>
      <trkpt lat="42.74286" lon="1.60498">
        <ele>1466.1477050781</ele>
        <time>2012-03-10T13:39:41Z</time>
      </trkpt>
      <trkpt lat="42.74286" lon="1.60499">
        <ele>1464.7058105469</ele>
        <time>2012-03-10T13:39:52Z</time>
      </trkpt>
      <trkpt lat="42.74286" lon="1.60499">
        <ele>1463.7443847656</ele>
        <time>2012-03-10T13:40:04Z</time>
      </trkpt>
      <trkpt lat="42.74287" lon="1.605">
        <ele>1464.2250976562</ele>
        <time>2012-03-10T13:40:11Z</time>
      </trkpt>
      <trkpt lat="42.74286" lon="1.605">
        <ele>1464.7058105469</ele>
        <time>2012-03-10T13:40:20Z</time>
      </trkpt>
      <trkpt lat="42.74286" lon="1.60499">
        <ele>1466.6284179688</ele>
        <time>2012-03-10T13:40:33Z</time>
      </trkpt>
      <trkpt lat="42.74286" lon="1.60501">
        <ele>1467.5895996094</ele>
        <time>2012-03-10T13:40:39Z</time>
      </trkpt>
      <trkpt lat="42.74284" lon="1.60501">
        <ele>1476.7224121094</ele>
        <time>2012-03-10T13:40:58Z</time>
      </trkpt>
      <trkpt lat="42.74285" lon="1.60498">
        <ele>1476.2416992188</ele>
        <time>2012-03-10T13:41:06Z</time>
      </trkpt>
      <trkpt lat="42.74284" lon="1.60498">
        <ele>1472.396484375</ele>
        <time>2012-03-10T13:41:21Z</time>
      </trkpt>
      <trkpt lat="42.74284" lon="1.60496">
        <ele>1470.4738769531</ele>
        <time>2012-03-10T13:41:29Z</time>
      </trkpt>
      <trkpt lat="42.74284" lon="1.60495">
        <ele>1466.6284179688</ele>
        <time>2012-03-10T13:41:47Z</time>
      </trkpt>
      <trkpt lat="42.74285" lon="1.60497">
        <ele>1463.2639160156</ele>
        <time>2012-03-10T13:41:52Z</time>
      </trkpt>
      <trkpt lat="42.74284" lon="1.60498">
        <ele>1463.2639160156</ele>
        <time>2012-03-10T13:41:55Z</time>
      </trkpt>
      <trkpt lat="42.74284" lon="1.60495">
        <ele>1464.2250976562</ele>
        <time>2012-03-10T13:42:00Z</time>
      </trkpt>
      <trkpt lat="42.74286" lon="1.60489">
        <ele>1464.2250976562</ele>
        <time>2012-03-10T13:42:06Z</time>
      </trkpt>
      <trkpt lat="42.7429" lon="1.60483">
        <ele>1463.2639160156</ele>
        <time>2012-03-10T13:42:13Z</time>
      </trkpt>
      <trkpt lat="42.74294" lon="1.60475">
        <ele>1462.783203125</ele>
        <time>2012-03-10T13:42:20Z</time>
      </trkpt>
      <trkpt lat="42.74297" lon="1.60467">
        <ele>1460.8605957031</ele>
        <time>2012-03-10T13:42:28Z</time>
      </trkpt>
      <trkpt lat="42.74297" lon="1.60463">
        <ele>1458.4572753906</ele>
        <time>2012-03-10T13:42:33Z</time>
      </trkpt>
      <trkpt lat="42.74295" lon="1.60458">
        <ele>1456.5346679688</ele>
        <time>2012-03-10T13:42:38Z</time>
      </trkpt>
      <trkpt lat="42.74294" lon="1.60453">
        <ele>1455.5734863281</ele>
        <time>2012-03-10T13:42:43Z</time>
      </trkpt>
      <trkpt lat="42.74296" lon="1.60445">
        <ele>1454.1315917969</ele>
        <time>2012-03-10T13:42:51Z</time>
      </trkpt>
      <trkpt lat="42.74294" lon="1.60443">
        <ele>1453.6508789062</ele>
        <time>2012-03-10T13:42:57Z</time>
      </trkpt>
      <trkpt lat="42.74292" lon="1.60442">
        <ele>1451.7280273438</ele>
        <time>2012-03-10T13:43:04Z</time>
      </trkpt>
      <trkpt lat="42.74294" lon="1.60434">
        <ele>1449.8054199219</ele>
        <time>2012-03-10T13:43:11Z</time>
      </trkpt>
      <trkpt lat="42.74297" lon="1.60426">
        <ele>1450.2861328125</ele>
        <time>2012-03-10T13:43:18Z</time>
      </trkpt>
      <trkpt lat="42.74301" lon="1.60418">
        <ele>1450.2861328125</ele>
        <time>2012-03-10T13:43:26Z</time>
      </trkpt>
      <trkpt lat="42.74302" lon="1.60414">
        <ele>1450.7666015625</ele>
        <time>2012-03-10T13:43:32Z</time>
      </trkpt>
      <trkpt lat="42.74304" lon="1.60409">
        <ele>1448.36328125</ele>
        <time>2012-03-10T13:43:38Z</time>
      </trkpt>
      <trkpt lat="42.74305" lon="1.60408">
        <ele>1448.36328125</ele>
        <time>2012-03-10T13:43:42Z</time>
      </trkpt>
      <trkpt lat="42.74304" lon="1.60407">
        <ele>1446.9213867188</ele>
        <time>2012-03-10T13:43:48Z</time>
      </trkpt>
      <trkpt lat="42.74304" lon="1.60404">
        <ele>1444.0375976562</ele>
        <time>2012-03-10T13:43:55Z</time>
      </trkpt>
      <trkpt lat="42.74304" lon="1.604">
        <ele>1441.6342773438</ele>
        <time>2012-03-10T13:44:02Z</time>
      </trkpt>
      <trkpt lat="42.74303" lon="1.60394">
        <ele>1442.1149902344</ele>
        <time>2012-03-10T13:44:09Z</time>
      </trkpt>
      <trkpt lat="42.74303" lon="1.6039">
        <ele>1440.1923828125</ele>
        <time>2012-03-10T13:44:16Z</time>
      </trkpt>
      <trkpt lat="42.74304" lon="1.60385">
        <ele>1439.2309570312</ele>
        <time>2012-03-10T13:44:22Z</time>
      </trkpt>
      <trkpt lat="42.74305" lon="1.6038">
        <ele>1435.8662109375</ele>
        <time>2012-03-10T13:44:29Z</time>
      </trkpt>
      <trkpt lat="42.74308" lon="1.60377">
        <ele>1435.3854980469</ele>
        <time>2012-03-10T13:44:34Z</time>
      </trkpt>
      <trkpt lat="42.7431" lon="1.60375">
        <ele>1434.9050292969</ele>
        <time>2012-03-10T13:44:39Z</time>
      </trkpt>
      <trkpt lat="42.7431" lon="1.60371">
        <ele>1432.9821777344</ele>
        <time>2012-03-10T13:44:44Z</time>
      </trkpt>
      <trkpt lat="42.7431" lon="1.60366">
        <ele>1433.9436035156</ele>
        <time>2012-03-10T13:44:48Z</time>
      </trkpt>
      <trkpt lat="42.74311" lon="1.60363">
        <ele>1434.4243164062</ele>
        <time>2012-03-10T13:44:55Z</time>
      </trkpt>
      <trkpt lat="42.74313" lon="1.60359">
        <ele>1435.8662109375</ele>
        <time>2012-03-10T13:45:00Z</time>
      </trkpt>
      <trkpt lat="42.74313" lon="1.60351">
        <ele>1435.8662109375</ele>
        <time>2012-03-10T13:45:07Z</time>
      </trkpt>
      <trkpt lat="42.74314" lon="1.60346">
        <ele>1434.9050292969</ele>
        <time>2012-03-10T13:45:13Z</time>
      </trkpt>
      <trkpt lat="42.74316" lon="1.60343">
        <ele>1434.4243164062</ele>
        <time>2012-03-10T13:45:17Z</time>
      </trkpt>
      <trkpt lat="42.74316" lon="1.60337">
        <ele>1436.3471679688</ele>
        <time>2012-03-10T13:45:24Z</time>
      </trkpt>
      <trkpt lat="42.74317" lon="1.60329">
        <ele>1439.2309570312</ele>
        <time>2012-03-10T13:45:31Z</time>
      </trkpt>
      <trkpt lat="42.74319" lon="1.60326">
        <ele>1444.5180664062</ele>
        <time>2012-03-10T13:45:37Z</time>
      </trkpt>
      <trkpt lat="42.74323" lon="1.60324">
        <ele>1447.4020996094</ele>
        <time>2012-03-10T13:45:44Z</time>
      </trkpt>
      <trkpt lat="42.74325" lon="1.60318">
        <ele>1448.8439941406</ele>
        <time>2012-03-10T13:45:49Z</time>
      </trkpt>
      <trkpt lat="42.74326" lon="1.60313">
        <ele>1447.4020996094</ele>
        <time>2012-03-10T13:45:54Z</time>
      </trkpt>
      <trkpt lat="42.74327" lon="1.60307">
        <ele>1445.4794921875</ele>
        <time>2012-03-10T13:46:00Z</time>
      </trkpt>
      <trkpt lat="42.74327" lon="1.60302">
        <ele>1444.0375976562</ele>
        <time>2012-03-10T13:46:06Z</time>
      </trkpt>
      <trkpt lat="42.74325" lon="1.60296">
        <ele>1441.1535644531</ele>
        <time>2012-03-10T13:46:12Z</time>
      </trkpt>
      <trkpt lat="42.74327" lon="1.60292">
        <ele>1440.6728515625</ele>
        <time>2012-03-10T13:46:19Z</time>
      </trkpt>
      <trkpt lat="42.74328" lon="1.60289">
        <ele>1441.1535644531</ele>
        <time>2012-03-10T13:46:25Z</time>
      </trkpt>
      <trkpt lat="42.74329" lon="1.60287">
        <ele>1440.1923828125</ele>
        <time>2012-03-10T13:46:30Z</time>
      </trkpt>
      <trkpt lat="42.7433" lon="1.60283">
        <ele>1439.2309570312</ele>
        <time>2012-03-10T13:46:35Z</time>
      </trkpt>
      <trkpt lat="42.74331" lon="1.60278">
        <ele>1437.7890625</ele>
        <time>2012-03-10T13:46:41Z</time>
      </trkpt>
      <trkpt lat="42.74335" lon="1.60273">
        <ele>1438.7504882812</ele>
        <time>2012-03-10T13:46:47Z</time>
      </trkpt>
      <trkpt lat="42.74339" lon="1.6027">
        <ele>1441.1535644531</ele>
        <time>2012-03-10T13:46:53Z</time>
      </trkpt>
      <trkpt lat="42.74343" lon="1.60264">
        <ele>1442.595703125</ele>
        <time>2012-03-10T13:47:00Z</time>
      </trkpt>
      <trkpt lat="42.74344" lon="1.60259">
        <ele>1443.5568847656</ele>
        <time>2012-03-10T13:47:05Z</time>
      </trkpt>
      <trkpt lat="42.74342" lon="1.60256">
        <ele>1442.595703125</ele>
        <time>2012-03-10T13:47:11Z</time>
      </trkpt>
      <trkpt lat="42.74342" lon="1.60249">
        <ele>1440.6728515625</ele>
        <time>2012-03-10T13:47:17Z</time>
      </trkpt>
      <trkpt lat="42.74343" lon="1.60247">
        <ele>1443.076171875</ele>
        <time>2012-03-10T13:47:20Z</time>
      </trkpt>
      <trkpt lat="42.74344" lon="1.60243">
        <ele>1444.0375976562</ele>
        <time>2012-03-10T13:47:25Z</time>
      </trkpt>
      <trkpt lat="42.74348" lon="1.60239">
        <ele>1444.0375976562</ele>
        <time>2012-03-10T13:47:31Z</time>
      </trkpt>
      <trkpt lat="42.74348" lon="1.60234">
        <ele>1443.076171875</ele>
        <time>2012-03-10T13:47:38Z</time>
      </trkpt>
      <trkpt lat="42.74347" lon="1.60229">
        <ele>1440.6728515625</ele>
        <time>2012-03-10T13:47:45Z</time>
      </trkpt>
      <trkpt lat="42.74348" lon="1.60222">
        <ele>1439.2309570312</ele>
        <time>2012-03-10T13:47:52Z</time>
      </trkpt>
      <trkpt lat="42.74347" lon="1.60218">
        <ele>1437.3083496094</ele>
        <time>2012-03-10T13:47:59Z</time>
      </trkpt>
      <trkpt lat="42.74344" lon="1.60215">
        <ele>1434.4243164062</ele>
        <time>2012-03-10T13:48:04Z</time>
      </trkpt>
      <trkpt lat="42.74342" lon="1.60212">
        <ele>1431.5402832031</ele>
        <time>2012-03-10T13:48:08Z</time>
      </trkpt>
      <trkpt lat="42.7434" lon="1.60206">
        <ele>1429.1369628906</ele>
        <time>2012-03-10T13:48:14Z</time>
      </trkpt>
      <trkpt lat="42.74342" lon="1.60197">
        <ele>1426.7338867188</ele>
        <time>2012-03-10T13:48:21Z</time>
      </trkpt>
      <trkpt lat="42.74341" lon="1.60195">
        <ele>1426.7338867188</ele>
        <time>2012-03-10T13:48:22Z</time>
      </trkpt>
      <trkpt lat="42.7434" lon="1.60188">
        <ele>1424.3305664062</ele>
        <time>2012-03-10T13:48:29Z</time>
      </trkpt>
      <trkpt lat="42.7434" lon="1.60186">
        <ele>1422.888671875</ele>
        <time>2012-03-10T13:48:34Z</time>
      </trkpt>
      <trkpt lat="42.74339" lon="1.60179">
        <ele>1418.0817871094</ele>
        <time>2012-03-10T13:48:41Z</time>
      </trkpt>
      <trkpt lat="42.7434" lon="1.60172">
        <ele>1415.6787109375</ele>
        <time>2012-03-10T13:48:46Z</time>
      </trkpt>
      <trkpt lat="42.7434" lon="1.60169">
        <ele>1412.7946777344</ele>
        <time>2012-03-10T13:48:52Z</time>
      </trkpt>
      <trkpt lat="42.7434" lon="1.60168">
        <ele>1412.7946777344</ele>
        <time>2012-03-10T13:49:06Z</time>
      </trkpt>
      <trkpt lat="42.7434" lon="1.60165">
        <ele>1412.3139648438</ele>
        <time>2012-03-10T13:49:13Z</time>
      </trkpt>
      <trkpt lat="42.74339" lon="1.6016">
        <ele>1409.4301757812</ele>
        <time>2012-03-10T13:49:20Z</time>
      </trkpt>
      <trkpt lat="42.74338" lon="1.60154">
        <ele>1407.5075683594</ele>
        <time>2012-03-10T13:49:26Z</time>
      </trkpt>
      <trkpt lat="42.74338" lon="1.60153">
        <ele>1406.0654296875</ele>
        <time>2012-03-10T13:49:31Z</time>
      </trkpt>
      <trkpt lat="42.74336" lon="1.60148">
        <ele>1405.1042480469</ele>
        <time>2012-03-10T13:49:36Z</time>
      </trkpt>
      <trkpt lat="42.74335" lon="1.60145">
        <ele>1404.6235351562</ele>
        <time>2012-03-10T13:49:38Z</time>
      </trkpt>
      <trkpt lat="42.74332" lon="1.60137">
        <ele>1405.1042480469</ele>
        <time>2012-03-10T13:49:44Z</time>
      </trkpt>
      <trkpt lat="42.74331" lon="1.60131">
        <ele>1404.6235351562</ele>
        <time>2012-03-10T13:49:49Z</time>
      </trkpt>
      <trkpt lat="42.74326" lon="1.60122">
        <ele>1402.7006835938</ele>
        <time>2012-03-10T13:49:57Z</time>
      </trkpt>
      <trkpt lat="42.74324" lon="1.60119">
        <ele>1402.2199707031</ele>
        <time>2012-03-10T13:50:00Z</time>
      </trkpt>
      <trkpt lat="42.74316" lon="1.60113">
        <ele>1401.2587890625</ele>
        <time>2012-03-10T13:50:08Z</time>
      </trkpt>
      <trkpt lat="42.74309" lon="1.60109">
        <ele>1397.4135742188</ele>
        <time>2012-03-10T13:50:15Z</time>
      </trkpt>
      <trkpt lat="42.74305" lon="1.60104">
        <ele>1396.4523925781</ele>
        <time>2012-03-10T13:50:20Z</time>
      </trkpt>
      <trkpt lat="42.74303" lon="1.60101">
        <ele>1395.9716796875</ele>
        <time>2012-03-10T13:50:25Z</time>
      </trkpt>
      <trkpt lat="42.74301" lon="1.60092">
        <ele>1395.0102539062</ele>
        <time>2012-03-10T13:50:31Z</time>
      </trkpt>
      <trkpt lat="42.74297" lon="1.60087">
        <ele>1393.0876464844</ele>
        <time>2012-03-10T13:50:35Z</time>
      </trkpt>
      <trkpt lat="42.74292" lon="1.60082">
        <ele>1393.0876464844</ele>
        <time>2012-03-10T13:50:40Z</time>
      </trkpt>
      <trkpt lat="42.74287" lon="1.60073">
        <ele>1391.1650390625</ele>
        <time>2012-03-10T13:50:47Z</time>
      </trkpt>
      <trkpt lat="42.74282" lon="1.60067">
        <ele>1387.8002929688</ele>
        <time>2012-03-10T13:50:54Z</time>
      </trkpt>
      <trkpt lat="42.74278" lon="1.60059">
        <ele>1385.3969726562</ele>
        <time>2012-03-10T13:51:01Z</time>
      </trkpt>
      <trkpt lat="42.74275" lon="1.60051">
        <ele>1383.4743652344</ele>
        <time>2012-03-10T13:51:08Z</time>
      </trkpt>
      <trkpt lat="42.74273" lon="1.60044">
        <ele>1382.0324707031</ele>
        <time>2012-03-10T13:51:14Z</time>
      </trkpt>
      <trkpt lat="42.74272" lon="1.60041">
        <ele>1381.5517578125</ele>
        <time>2012-03-10T13:51:16Z</time>
      </trkpt>
      <trkpt lat="42.74271" lon="1.60029">
        <ele>1379.6291503906</ele>
        <time>2012-03-10T13:51:24Z</time>
      </trkpt>
      <trkpt lat="42.74272" lon="1.60022">
        <ele>1377.7065429688</ele>
        <time>2012-03-10T13:51:31Z</time>
      </trkpt>
      <trkpt lat="42.74273" lon="1.60016">
        <ele>1376.7453613281</ele>
        <time>2012-03-10T13:51:38Z</time>
      </trkpt>
      <trkpt lat="42.74272" lon="1.60009">
        <ele>1376.2646484375</ele>
        <time>2012-03-10T13:51:43Z</time>
      </trkpt>
      <trkpt lat="42.74274" lon="1.59999">
        <ele>1375.3032226562</ele>
        <time>2012-03-10T13:51:50Z</time>
      </trkpt>
      <trkpt lat="42.74271" lon="1.59983">
        <ele>1376.7453613281</ele>
        <time>2012-03-10T13:52:00Z</time>
      </trkpt>
      <trkpt lat="42.74266" lon="1.59977">
        <ele>1375.7839355469</ele>
        <time>2012-03-10T13:52:06Z</time>
      </trkpt>
      <trkpt lat="42.74266" lon="1.59974">
        <ele>1374.8227539062</ele>
        <time>2012-03-10T13:52:08Z</time>
      </trkpt>
      <trkpt lat="42.74266" lon="1.59968">
        <ele>1374.3420410156</ele>
        <time>2012-03-10T13:52:12Z</time>
      </trkpt>
      <trkpt lat="42.74264" lon="1.59958">
        <ele>1371.9384765625</ele>
        <time>2012-03-10T13:52:19Z</time>
      </trkpt>
      <trkpt lat="42.74262" lon="1.59946">
        <ele>1370.9772949219</ele>
        <time>2012-03-10T13:52:27Z</time>
      </trkpt>
      <trkpt lat="42.7426" lon="1.59938">
        <ele>1370.0158691406</ele>
        <time>2012-03-10T13:52:33Z</time>
      </trkpt>
      <trkpt lat="42.74263" lon="1.59929">
        <ele>1368.0932617188</ele>
        <time>2012-03-10T13:52:40Z</time>
      </trkpt>
      <trkpt lat="42.74266" lon="1.59918">
        <ele>1366.6513671875</ele>
        <time>2012-03-10T13:52:48Z</time>
      </trkpt>
      <trkpt lat="42.74268" lon="1.59909">
        <ele>1364.7287597656</ele>
        <time>2012-03-10T13:52:55Z</time>
      </trkpt>
      <trkpt lat="42.74269" lon="1.59902">
        <ele>1363.2868652344</ele>
        <time>2012-03-10T13:53:01Z</time>
      </trkpt>
      <trkpt lat="42.74272" lon="1.599">
        <ele>1363.7673339844</ele>
        <time>2012-03-10T13:53:07Z</time>
      </trkpt>
      <trkpt lat="42.74274" lon="1.59898">
        <ele>1364.7287597656</ele>
        <time>2012-03-10T13:53:12Z</time>
      </trkpt>
      <trkpt lat="42.74277" lon="1.59892">
        <ele>1363.7673339844</ele>
        <time>2012-03-10T13:53:19Z</time>
      </trkpt>
      <trkpt lat="42.74279" lon="1.59884">
        <ele>1362.8061523438</ele>
        <time>2012-03-10T13:53:26Z</time>
      </trkpt>
      <trkpt lat="42.74282" lon="1.59879">
        <ele>1363.2868652344</ele>
        <time>2012-03-10T13:53:32Z</time>
      </trkpt>
      <trkpt lat="42.74284" lon="1.59877">
        <ele>1362.8061523438</ele>
        <time>2012-03-10T13:53:36Z</time>
      </trkpt>
      <trkpt lat="42.74287" lon="1.59875">
        <ele>1361.8449707031</ele>
        <time>2012-03-10T13:53:42Z</time>
      </trkpt>
      <trkpt lat="42.74291" lon="1.5987">
        <ele>1361.8449707031</ele>
        <time>2012-03-10T13:53:48Z</time>
      </trkpt>
      <trkpt lat="42.74294" lon="1.59864">
        <ele>1361.3642578125</ele>
        <time>2012-03-10T13:53:54Z</time>
      </trkpt>
      <trkpt lat="42.74298" lon="1.59851">
        <ele>1357.9997558594</ele>
        <time>2012-03-10T13:54:04Z</time>
      </trkpt>
      <trkpt lat="42.743" lon="1.59848">
        <ele>1357.0383300781</ele>
        <time>2012-03-10T13:54:09Z</time>
      </trkpt>
      <trkpt lat="42.74301" lon="1.59846">
        <ele>1355.5961914062</ele>
        <time>2012-03-10T13:54:14Z</time>
      </trkpt>
      <trkpt lat="42.74305" lon="1.59842">
        <ele>1353.6735839844</ele>
        <time>2012-03-10T13:54:21Z</time>
      </trkpt>
      <trkpt lat="42.74309" lon="1.59839">
        <ele>1351.2702636719</ele>
        <time>2012-03-10T13:54:28Z</time>
      </trkpt>
      <trkpt lat="42.74312" lon="1.59833">
        <ele>1350.3090820312</ele>
        <time>2012-03-10T13:54:34Z</time>
      </trkpt>
      <trkpt lat="42.74313" lon="1.59829">
        <ele>1348.3862304688</ele>
        <time>2012-03-10T13:54:39Z</time>
      </trkpt>
      <trkpt lat="42.74314" lon="1.59821">
        <ele>1347.4250488281</ele>
        <time>2012-03-10T13:54:46Z</time>
      </trkpt>
      <trkpt lat="42.74316" lon="1.59816">
        <ele>1345.0217285156</ele>
        <time>2012-03-10T13:54:51Z</time>
      </trkpt>
      <trkpt lat="42.74316" lon="1.59812">
        <ele>1343.5798339844</ele>
        <time>2012-03-10T13:54:56Z</time>
      </trkpt>
      <trkpt lat="42.74316" lon="1.59807">
        <ele>1342.1379394531</ele>
        <time>2012-03-10T13:55:00Z</time>
      </trkpt>
      <trkpt lat="42.74318" lon="1.598">
        <ele>1340.2153320312</ele>
        <time>2012-03-10T13:55:06Z</time>
      </trkpt>
      <trkpt lat="42.74319" lon="1.59794">
        <ele>1338.7731933594</ele>
        <time>2012-03-10T13:55:11Z</time>
      </trkpt>
      <trkpt lat="42.7432" lon="1.59786">
        <ele>1337.8117675781</ele>
        <time>2012-03-10T13:55:17Z</time>
      </trkpt>
      <trkpt lat="42.74323" lon="1.59784">
        <ele>1335.4084472656</ele>
        <time>2012-03-10T13:55:23Z</time>
      </trkpt>
      <trkpt lat="42.74326" lon="1.59782">
        <ele>1333.0051269531</ele>
        <time>2012-03-10T13:55:28Z</time>
      </trkpt>
      <trkpt lat="42.7433" lon="1.59778">
        <ele>1330.6020507812</ele>
        <time>2012-03-10T13:55:35Z</time>
      </trkpt>
      <trkpt lat="42.74333" lon="1.59772">
        <ele>1331.5632324219</ele>
        <time>2012-03-10T13:55:41Z</time>
      </trkpt>
      <trkpt lat="42.74335" lon="1.59767">
        <ele>1331.0827636719</ele>
        <time>2012-03-10T13:55:46Z</time>
      </trkpt>
      <trkpt lat="42.74335" lon="1.59763">
        <ele>1330.6020507812</ele>
        <time>2012-03-10T13:55:52Z</time>
      </trkpt>
      <trkpt lat="42.74335" lon="1.5976">
        <ele>1329.640625</ele>
        <time>2012-03-10T13:55:58Z</time>
      </trkpt>
      <trkpt lat="42.74337" lon="1.59758">
        <ele>1327.7180175781</ele>
        <time>2012-03-10T13:56:03Z</time>
      </trkpt>
      <trkpt lat="42.7434" lon="1.59757">
        <ele>1324.8342285156</ele>
        <time>2012-03-10T13:56:08Z</time>
      </trkpt>
      <trkpt lat="42.74343" lon="1.59756">
        <ele>1321.9499511719</ele>
        <time>2012-03-10T13:56:13Z</time>
      </trkpt>
      <trkpt lat="42.74345" lon="1.59749">
        <ele>1322.4306640625</ele>
        <time>2012-03-10T13:56:18Z</time>
      </trkpt>
      <trkpt lat="42.74348" lon="1.59743">
        <ele>1321.4692382812</ele>
        <time>2012-03-10T13:56:24Z</time>
      </trkpt>
      <trkpt lat="42.74351" lon="1.59737">
        <ele>1319.0661621094</ele>
        <time>2012-03-10T13:56:30Z</time>
      </trkpt>
      <trkpt lat="42.74354" lon="1.59732">
        <ele>1317.1435546875</ele>
        <time>2012-03-10T13:56:38Z</time>
      </trkpt>
      <trkpt lat="42.74358" lon="1.59728">
        <ele>1317.6240234375</ele>
        <time>2012-03-10T13:56:45Z</time>
      </trkpt>
      <trkpt lat="42.74362" lon="1.59723">
        <ele>1317.1435546875</ele>
        <time>2012-03-10T13:56:51Z</time>
      </trkpt>
      <trkpt lat="42.74364" lon="1.59718">
        <ele>1317.1435546875</ele>
        <time>2012-03-10T13:56:57Z</time>
      </trkpt>
      <trkpt lat="42.74369" lon="1.59712">
        <ele>1315.2209472656</ele>
        <time>2012-03-10T13:57:03Z</time>
      </trkpt>
      <trkpt lat="42.74371" lon="1.59711">
        <ele>1314.740234375</ele>
        <time>2012-03-10T13:57:05Z</time>
      </trkpt>
      <trkpt lat="42.74378" lon="1.59706">
        <ele>1310.4143066406</ele>
        <time>2012-03-10T13:57:12Z</time>
      </trkpt>
      <trkpt lat="42.74384" lon="1.59698">
        <ele>1307.5302734375</ele>
        <time>2012-03-10T13:57:20Z</time>
      </trkpt>
      <trkpt lat="42.74386" lon="1.59692">
        <ele>1308.4916992188</ele>
        <time>2012-03-10T13:57:26Z</time>
      </trkpt>
      <trkpt lat="42.74389" lon="1.59681">
        <ele>1307.5302734375</ele>
        <time>2012-03-10T13:57:33Z</time>
      </trkpt>
      <trkpt lat="42.74394" lon="1.59671">
        <ele>1303.6850585938</ele>
        <time>2012-03-10T13:57:41Z</time>
      </trkpt>
      <trkpt lat="42.74395" lon="1.5967">
        <ele>1303.2043457031</ele>
        <time>2012-03-10T13:57:43Z</time>
      </trkpt>
      <trkpt lat="42.74398" lon="1.59661">
        <ele>1300.3205566406</ele>
        <time>2012-03-10T13:57:49Z</time>
      </trkpt>
      <trkpt lat="42.74403" lon="1.5965">
        <ele>1299.3591308594</ele>
        <time>2012-03-10T13:57:56Z</time>
      </trkpt>
      <trkpt lat="42.74403" lon="1.59649">
        <ele>1299.3591308594</ele>
        <time>2012-03-10T13:57:57Z</time>
      </trkpt>
      <trkpt lat="42.74405" lon="1.59645">
        <ele>1297.9172363281</ele>
        <time>2012-03-10T13:58:01Z</time>
      </trkpt>
      <trkpt lat="42.74407" lon="1.59636">
        <ele>1296.9558105469</ele>
        <time>2012-03-10T13:58:07Z</time>
      </trkpt>
      <trkpt lat="42.74408" lon="1.59635">
        <ele>1296.4753417969</ele>
        <time>2012-03-10T13:58:08Z</time>
      </trkpt>
      <trkpt lat="42.74411" lon="1.59629">
        <ele>1294.5524902344</ele>
        <time>2012-03-10T13:58:14Z</time>
      </trkpt>
      <trkpt lat="42.74412" lon="1.59621">
        <ele>1292.1494140625</ele>
        <time>2012-03-10T13:58:21Z</time>
      </trkpt>
      <trkpt lat="42.74412" lon="1.59615">
        <ele>1289.7458496094</ele>
        <time>2012-03-10T13:58:27Z</time>
      </trkpt>
      <trkpt lat="42.74414" lon="1.59607">
        <ele>1287.8232421875</ele>
        <time>2012-03-10T13:58:34Z</time>
      </trkpt>
      <trkpt lat="42.74415" lon="1.59599">
        <ele>1285.419921875</ele>
        <time>2012-03-10T13:58:40Z</time>
      </trkpt>
      <trkpt lat="42.74416" lon="1.59597">
        <ele>1283.4973144531</ele>
        <time>2012-03-10T13:58:44Z</time>
      </trkpt>
      <trkpt lat="42.74416" lon="1.59591">
        <ele>1281.0942382812</ele>
        <time>2012-03-10T13:58:51Z</time>
      </trkpt>
      <trkpt lat="42.74416" lon="1.59584">
        <ele>1280.6135253906</ele>
        <time>2012-03-10T13:58:56Z</time>
      </trkpt>
      <trkpt lat="42.74416" lon="1.59579">
        <ele>1279.6520996094</ele>
        <time>2012-03-10T13:59:01Z</time>
      </trkpt>
      <trkpt lat="42.74416" lon="1.59572">
        <ele>1277.2490234375</ele>
        <time>2012-03-10T13:59:07Z</time>
      </trkpt>
      <trkpt lat="42.74414" lon="1.59565">
        <ele>1273.4035644531</ele>
        <time>2012-03-10T13:59:14Z</time>
      </trkpt>
      <trkpt lat="42.74415" lon="1.59559">
        <ele>1271.4807128906</ele>
        <time>2012-03-10T13:59:20Z</time>
      </trkpt>
      <trkpt lat="42.74413" lon="1.59552">
        <ele>1270.0388183594</ele>
        <time>2012-03-10T13:59:27Z</time>
      </trkpt>
      <trkpt lat="42.74409" lon="1.59547">
        <ele>1268.1162109375</ele>
        <time>2012-03-10T13:59:33Z</time>
      </trkpt>
      <trkpt lat="42.74408" lon="1.59539">
        <ele>1264.2709960938</ele>
        <time>2012-03-10T13:59:40Z</time>
      </trkpt>
      <trkpt lat="42.74412" lon="1.59537">
        <ele>1262.3483886719</ele>
        <time>2012-03-10T13:59:45Z</time>
      </trkpt>
      <trkpt lat="42.74411" lon="1.59533">
        <ele>1259.4643554688</ele>
        <time>2012-03-10T13:59:50Z</time>
      </trkpt>
      <trkpt lat="42.74408" lon="1.59529">
        <ele>1257.0610351562</ele>
        <time>2012-03-10T13:59:55Z</time>
      </trkpt>
      <trkpt lat="42.74405" lon="1.59525">
        <ele>1254.1772460938</ele>
        <time>2012-03-10T14:00:01Z</time>
      </trkpt>
      <trkpt lat="42.74403" lon="1.59521">
        <ele>1252.7351074219</ele>
        <time>2012-03-10T14:00:06Z</time>
      </trkpt>
      <trkpt lat="42.74404" lon="1.59519">
        <ele>1251.2932128906</ele>
        <time>2012-03-10T14:00:09Z</time>
      </trkpt>
      <trkpt lat="42.74405" lon="1.59519">
        <ele>1250.8125</ele>
        <time>2012-03-10T14:00:23Z</time>
      </trkpt>
      <trkpt lat="42.74406" lon="1.59516">
        <ele>1249.8513183594</ele>
        <time>2012-03-10T14:00:29Z</time>
      </trkpt>
      <trkpt lat="42.74405" lon="1.59514">
        <ele>1247.9287109375</ele>
        <time>2012-03-10T14:00:35Z</time>
      </trkpt>
      <trkpt lat="42.74406" lon="1.59511">
        <ele>1248.4091796875</ele>
        <time>2012-03-10T14:00:38Z</time>
      </trkpt>
      <trkpt lat="42.74413" lon="1.59507">
        <ele>1247.4479980469</ele>
        <time>2012-03-10T14:00:45Z</time>
      </trkpt>
      <trkpt lat="42.74423" lon="1.59505">
        <ele>1244.0834960938</ele>
        <time>2012-03-10T14:00:55Z</time>
      </trkpt>
      <trkpt lat="42.7443" lon="1.59502">
        <ele>1242.1606445312</ele>
        <time>2012-03-10T14:01:03Z</time>
      </trkpt>
      <trkpt lat="42.74437" lon="1.59498">
        <ele>1240.2380371094</ele>
        <time>2012-03-10T14:01:12Z</time>
      </trkpt>
      <trkpt lat="42.7444" lon="1.59494">
        <ele>1240.2380371094</ele>
        <time>2012-03-10T14:01:16Z</time>
      </trkpt>
      <trkpt lat="42.74443" lon="1.59485">
        <ele>1243.1218261719</ele>
        <time>2012-03-10T14:01:22Z</time>
      </trkpt>
      <trkpt lat="42.74446" lon="1.59471">
        <ele>1243.6025390625</ele>
        <time>2012-03-10T14:01:31Z</time>
      </trkpt>
      <trkpt lat="42.74447" lon="1.59464">
        <ele>1243.1218261719</ele>
        <time>2012-03-10T14:01:35Z</time>
      </trkpt>
      <trkpt lat="42.74448" lon="1.59452">
        <ele>1242.1606445312</ele>
        <time>2012-03-10T14:01:43Z</time>
      </trkpt>
      <trkpt lat="42.74445" lon="1.59437">
        <ele>1242.1606445312</ele>
        <time>2012-03-10T14:01:52Z</time>
      </trkpt>
      <trkpt lat="42.74437" lon="1.5943">
        <ele>1240.7185058594</ele>
        <time>2012-03-10T14:02:00Z</time>
      </trkpt>
      <trkpt lat="42.74426" lon="1.59425">
        <ele>1239.7573242188</ele>
        <time>2012-03-10T14:02:08Z</time>
      </trkpt>
      <trkpt lat="42.74419" lon="1.59421">
        <ele>1238.3154296875</ele>
        <time>2012-03-10T14:02:14Z</time>
      </trkpt>
      <trkpt lat="42.7441" lon="1.59422">
        <ele>1239.7573242188</ele>
        <time>2012-03-10T14:02:20Z</time>
      </trkpt>
      <trkpt lat="42.74406" lon="1.59425">
        <ele>1240.2380371094</ele>
        <time>2012-03-10T14:02:25Z</time>
      </trkpt>
      <trkpt lat="42.74401" lon="1.59431">
        <ele>1240.7185058594</ele>
        <time>2012-03-10T14:02:30Z</time>
      </trkpt>
      <trkpt lat="42.74395" lon="1.59439">
        <ele>1240.7185058594</ele>
        <time>2012-03-10T14:02:35Z</time>
      </trkpt>
      <trkpt lat="42.74392" lon="1.5944">
        <ele>1239.7573242188</ele>
        <time>2012-03-10T14:02:37Z</time>
      </trkpt>
      <trkpt lat="42.74385" lon="1.59436">
        <ele>1238.3154296875</ele>
        <time>2012-03-10T14:02:43Z</time>
      </trkpt>
      <trkpt lat="42.74382" lon="1.59428">
        <ele>1236.3928222656</ele>
        <time>2012-03-10T14:02:47Z</time>
      </trkpt>
      <trkpt lat="42.74384" lon="1.59423">
        <ele>1234.9509277344</ele>
        <time>2012-03-10T14:02:51Z</time>
      </trkpt>
      <trkpt lat="42.74384" lon="1.59421">
        <ele>1234.4702148438</ele>
        <time>2012-03-10T14:02:54Z</time>
      </trkpt>
      <trkpt lat="42.74386" lon="1.59405">
        <ele>1233.9895019531</ele>
        <time>2012-03-10T14:03:04Z</time>
      </trkpt>
      <trkpt lat="42.74385" lon="1.59393">
        <ele>1232.5476074219</ele>
        <time>2012-03-10T14:03:11Z</time>
      </trkpt>
      <trkpt lat="42.74384" lon="1.59382">
        <ele>1233.5087890625</ele>
        <time>2012-03-10T14:03:17Z</time>
      </trkpt>
      <trkpt lat="42.74383" lon="1.59379">
        <ele>1233.0280761719</ele>
        <time>2012-03-10T14:03:19Z</time>
      </trkpt>
      <trkpt lat="42.7438" lon="1.59372">
        <ele>1235.4313964844</ele>
        <time>2012-03-10T14:03:23Z</time>
      </trkpt>
      <trkpt lat="42.74379" lon="1.59359">
        <ele>1234.4702148438</ele>
        <time>2012-03-10T14:03:31Z</time>
      </trkpt>
      <trkpt lat="42.74379" lon="1.59354">
        <ele>1233.9895019531</ele>
        <time>2012-03-10T14:03:34Z</time>
      </trkpt>
      <trkpt lat="42.7438" lon="1.59345">
        <ele>1233.0280761719</ele>
        <time>2012-03-10T14:03:39Z</time>
      </trkpt>
      <trkpt lat="42.74381" lon="1.59335">
        <ele>1233.5087890625</ele>
        <time>2012-03-10T14:03:44Z</time>
      </trkpt>
      <trkpt lat="42.74381" lon="1.59331">
        <ele>1233.5087890625</ele>
        <time>2012-03-10T14:03:46Z</time>
      </trkpt>
      <trkpt lat="42.74386" lon="1.59318">
        <ele>1234.9509277344</ele>
        <time>2012-03-10T14:03:53Z</time>
      </trkpt>
      <trkpt lat="42.74393" lon="1.59312">
        <ele>1233.5087890625</ele>
        <time>2012-03-10T14:03:59Z</time>
      </trkpt>
      <trkpt lat="42.74395" lon="1.5931">
        <ele>1233.0280761719</ele>
        <time>2012-03-10T14:04:01Z</time>
      </trkpt>
      <trkpt lat="42.744" lon="1.59303">
        <ele>1232.0668945312</ele>
        <time>2012-03-10T14:04:07Z</time>
      </trkpt>
      <trkpt lat="42.74405" lon="1.59292">
        <ele>1228.7023925781</ele>
        <time>2012-03-10T14:04:14Z</time>
      </trkpt>
      <trkpt lat="42.74405" lon="1.59291">
        <ele>1228.2216796875</ele>
        <time>2012-03-10T14:04:15Z</time>
      </trkpt>
      <trkpt lat="42.74408" lon="1.59282">
        <ele>1226.7795410156</ele>
        <time>2012-03-10T14:04:21Z</time>
      </trkpt>
      <trkpt lat="42.74409" lon="1.59281">
        <ele>1225.8181152344</ele>
        <time>2012-03-10T14:04:22Z</time>
      </trkpt>
      <trkpt lat="42.74411" lon="1.59279">
        <ele>1224.8569335938</ele>
        <time>2012-03-10T14:04:24Z</time>
      </trkpt>
      <trkpt lat="42.74416" lon="1.59269">
        <ele>1224.3762207031</ele>
        <time>2012-03-10T14:04:30Z</time>
      </trkpt>
      <trkpt lat="42.74418" lon="1.59266">
        <ele>1225.3374023438</ele>
        <time>2012-03-10T14:04:32Z</time>
      </trkpt>
      <trkpt lat="42.74419" lon="1.59261">
        <ele>1227.7407226562</ele>
        <time>2012-03-10T14:04:34Z</time>
      </trkpt>
      <trkpt lat="42.74425" lon="1.59253">
        <ele>1228.2216796875</ele>
        <time>2012-03-10T14:04:40Z</time>
      </trkpt>
      <trkpt lat="42.74431" lon="1.59247">
        <ele>1226.7795410156</ele>
        <time>2012-03-10T14:04:46Z</time>
      </trkpt>
      <trkpt lat="42.74437" lon="1.59238">
        <ele>1225.8181152344</ele>
        <time>2012-03-10T14:04:52Z</time>
      </trkpt>
      <trkpt lat="42.74441" lon="1.59229">
        <ele>1224.8569335938</ele>
        <time>2012-03-10T14:04:58Z</time>
      </trkpt>
      <trkpt lat="42.74447" lon="1.59218">
        <ele>1221.4921875</ele>
        <time>2012-03-10T14:05:06Z</time>
      </trkpt>
      <trkpt lat="42.7445" lon="1.59208">
        <ele>1221.01171875</ele>
        <time>2012-03-10T14:05:12Z</time>
      </trkpt>
      <trkpt lat="42.74454" lon="1.5919">
        <ele>1218.1276855469</ele>
        <time>2012-03-10T14:05:22Z</time>
      </trkpt>
      <trkpt lat="42.74455" lon="1.59184">
        <ele>1218.1276855469</ele>
        <time>2012-03-10T14:05:25Z</time>
      </trkpt>
      <trkpt lat="42.74458" lon="1.59168">
        <ele>1218.6083984375</ele>
        <time>2012-03-10T14:05:33Z</time>
      </trkpt>
      <trkpt lat="42.74462" lon="1.59151">
        <ele>1219.5698242188</ele>
        <time>2012-03-10T14:05:40Z</time>
      </trkpt>
      <trkpt lat="42.74468" lon="1.59131">
        <ele>1219.0891113281</ele>
        <time>2012-03-10T14:05:47Z</time>
      </trkpt>
      <trkpt lat="42.74474" lon="1.59118">
        <ele>1217.1665039062</ele>
        <time>2012-03-10T14:05:53Z</time>
      </trkpt>
      <trkpt lat="42.74482" lon="1.59098">
        <ele>1214.7631835938</ele>
        <time>2012-03-10T14:06:01Z</time>
      </trkpt>
      <trkpt lat="42.74488" lon="1.59083">
        <ele>1213.3212890625</ele>
        <time>2012-03-10T14:06:07Z</time>
      </trkpt>
      <trkpt lat="42.74494" lon="1.59064">
        <ele>1212.3598632812</ele>
        <time>2012-03-10T14:06:14Z</time>
      </trkpt>
      <trkpt lat="42.745" lon="1.59047">
        <ele>1211.8791503906</ele>
        <time>2012-03-10T14:06:20Z</time>
      </trkpt>
      <trkpt lat="42.74504" lon="1.59035">
        <ele>1212.3598632812</ele>
        <time>2012-03-10T14:06:25Z</time>
      </trkpt>
      <trkpt lat="42.7451" lon="1.5902">
        <ele>1208.0339355469</ele>
        <time>2012-03-10T14:06:31Z</time>
      </trkpt>
      <trkpt lat="42.74514" lon="1.59013">
        <ele>1206.591796875</ele>
        <time>2012-03-10T14:06:34Z</time>
      </trkpt>
      <trkpt lat="42.74519" lon="1.58995">
        <ele>1202.7465820312</ele>
        <time>2012-03-10T14:06:41Z</time>
      </trkpt>
      <trkpt lat="42.74525" lon="1.58978">
        <ele>1202.7465820312</ele>
        <time>2012-03-10T14:06:47Z</time>
      </trkpt>
      <trkpt lat="42.74531" lon="1.5896">
        <ele>1200.8239746094</ele>
        <time>2012-03-10T14:06:53Z</time>
      </trkpt>
      <trkpt lat="42.74534" lon="1.58951">
        <ele>1199.8627929688</ele>
        <time>2012-03-10T14:06:56Z</time>
      </trkpt>
      <trkpt lat="42.74539" lon="1.58935">
        <ele>1199.3820800781</ele>
        <time>2012-03-10T14:07:03Z</time>
      </trkpt>
      <trkpt lat="42.7454" lon="1.58933">
        <ele>1199.3820800781</ele>
        <time>2012-03-10T14:07:04Z</time>
      </trkpt>
      <trkpt lat="42.74543" lon="1.5892">
        <ele>1200.8239746094</ele>
        <time>2012-03-10T14:07:10Z</time>
      </trkpt>
      <trkpt lat="42.74548" lon="1.58908">
        <ele>1199.3820800781</ele>
        <time>2012-03-10T14:07:18Z</time>
      </trkpt>
      <trkpt lat="42.74551" lon="1.58901">
        <ele>1197.9401855469</ele>
        <time>2012-03-10T14:07:22Z</time>
      </trkpt>
      <trkpt lat="42.74553" lon="1.58891">
        <ele>1199.3820800781</ele>
        <time>2012-03-10T14:07:28Z</time>
      </trkpt>
      <trkpt lat="42.74554" lon="1.58883">
        <ele>1198.9013671875</ele>
        <time>2012-03-10T14:07:32Z</time>
      </trkpt>
      <trkpt lat="42.74556" lon="1.58873">
        <ele>1197.9401855469</ele>
        <time>2012-03-10T14:07:37Z</time>
      </trkpt>
      <trkpt lat="42.74558" lon="1.58865">
        <ele>1198.9013671875</ele>
        <time>2012-03-10T14:07:41Z</time>
      </trkpt>
      <trkpt lat="42.74561" lon="1.58846">
        <ele>1199.8627929688</ele>
        <time>2012-03-10T14:07:50Z</time>
      </trkpt>
      <trkpt lat="42.74562" lon="1.58833">
        <ele>1198.9013671875</ele>
        <time>2012-03-10T14:07:56Z</time>
      </trkpt>
      <trkpt lat="42.74564" lon="1.58819">
        <ele>1196.017578125</ele>
        <time>2012-03-10T14:08:04Z</time>
      </trkpt>
      <trkpt lat="42.74566" lon="1.5881">
        <ele>1195.5366210938</ele>
        <time>2012-03-10T14:08:09Z</time>
      </trkpt>
      <trkpt lat="42.74566" lon="1.58808">
        <ele>1195.0559082031</ele>
        <time>2012-03-10T14:08:10Z</time>
      </trkpt>
      <trkpt lat="42.74568" lon="1.58789">
        <ele>1194.5751953125</ele>
        <time>2012-03-10T14:08:19Z</time>
      </trkpt>
      <trkpt lat="42.74569" lon="1.58785">
        <ele>1194.0947265625</ele>
        <time>2012-03-10T14:08:21Z</time>
      </trkpt>
      <trkpt lat="42.7457" lon="1.58775">
        <ele>1191.2106933594</ele>
        <time>2012-03-10T14:08:27Z</time>
      </trkpt>
      <trkpt lat="42.74571" lon="1.58767">
        <ele>1189.2880859375</ele>
        <time>2012-03-10T14:08:31Z</time>
      </trkpt>
      <trkpt lat="42.74574" lon="1.58756">
        <ele>1190.7299804688</ele>
        <time>2012-03-10T14:08:37Z</time>
      </trkpt>
      <trkpt lat="42.74579" lon="1.58742">
        <ele>1191.2106933594</ele>
        <time>2012-03-10T14:08:45Z</time>
      </trkpt>
      <trkpt lat="42.74582" lon="1.58737">
        <ele>1191.2106933594</ele>
        <time>2012-03-10T14:08:48Z</time>
      </trkpt>
      <trkpt lat="42.74593" lon="1.58724">
        <ele>1191.69140625</ele>
        <time>2012-03-10T14:08:57Z</time>
      </trkpt>
      <trkpt lat="42.74604" lon="1.58713">
        <ele>1190.2495117188</ele>
        <time>2012-03-10T14:09:05Z</time>
      </trkpt>
      <trkpt lat="42.74617" lon="1.58703">
        <ele>1189.2880859375</ele>
        <time>2012-03-10T14:09:14Z</time>
      </trkpt>
      <trkpt lat="42.74627" lon="1.58697">
        <ele>1186.884765625</ele>
        <time>2012-03-10T14:09:20Z</time>
      </trkpt>
      <trkpt lat="42.74634" lon="1.58689">
        <ele>1184.4816894531</ele>
        <time>2012-03-10T14:09:25Z</time>
      </trkpt>
      <trkpt lat="42.7464" lon="1.58678">
        <ele>1181.59765625</ele>
        <time>2012-03-10T14:09:32Z</time>
      </trkpt>
      <trkpt lat="42.74647" lon="1.58667">
        <ele>1180.1557617188</ele>
        <time>2012-03-10T14:09:39Z</time>
      </trkpt>
      <trkpt lat="42.74657" lon="1.58654">
        <ele>1179.1940917969</ele>
        <time>2012-03-10T14:09:48Z</time>
      </trkpt>
      <trkpt lat="42.74665" lon="1.58648">
        <ele>1178.2329101562</ele>
        <time>2012-03-10T14:09:54Z</time>
      </trkpt>
      <trkpt lat="42.74673" lon="1.5864">
        <ele>1181.1171875</ele>
        <time>2012-03-10T14:10:00Z</time>
      </trkpt>
      <trkpt lat="42.74679" lon="1.58632">
        <ele>1185.4428710938</ele>
        <time>2012-03-10T14:10:05Z</time>
      </trkpt>
      <trkpt lat="42.74688" lon="1.58627">
        <ele>1183.0395507812</ele>
        <time>2012-03-10T14:10:10Z</time>
      </trkpt>
      <trkpt lat="42.74697" lon="1.58623">
        <ele>1180.1557617188</ele>
        <time>2012-03-10T14:10:16Z</time>
      </trkpt>
      <trkpt lat="42.74699" lon="1.58622">
        <ele>1179.1940917969</ele>
        <time>2012-03-10T14:10:17Z</time>
      </trkpt>
      <trkpt lat="42.74706" lon="1.5862">
        <ele>1177.2717285156</ele>
        <time>2012-03-10T14:10:21Z</time>
      </trkpt>
      <trkpt lat="42.74715" lon="1.58616">
        <ele>1175.8295898438</ele>
        <time>2012-03-10T14:10:27Z</time>
      </trkpt>
      <trkpt lat="42.74725" lon="1.58615">
        <ele>1172.4650878906</ele>
        <time>2012-03-10T14:10:33Z</time>
      </trkpt>
      <trkpt lat="42.7473" lon="1.58615">
        <ele>1171.984375</ele>
        <time>2012-03-10T14:10:36Z</time>
      </trkpt>
      <trkpt lat="42.7474" lon="1.58615">
        <ele>1171.5036621094</ele>
        <time>2012-03-10T14:10:43Z</time>
      </trkpt>
      <trkpt lat="42.74749" lon="1.58615">
        <ele>1171.984375</ele>
        <time>2012-03-10T14:10:50Z</time>
      </trkpt>
      <trkpt lat="42.74757" lon="1.58615">
        <ele>1171.984375</ele>
        <time>2012-03-10T14:10:57Z</time>
      </trkpt>
      <trkpt lat="42.74764" lon="1.58608">
        <ele>1170.0617675781</ele>
        <time>2012-03-10T14:11:04Z</time>
      </trkpt>
      <trkpt lat="42.74765" lon="1.58607">
        <ele>1169.5812988281</ele>
        <time>2012-03-10T14:11:05Z</time>
      </trkpt>
      <trkpt lat="42.74767" lon="1.58593">
        <ele>1167.6584472656</ele>
        <time>2012-03-10T14:11:13Z</time>
      </trkpt>
      <trkpt lat="42.74767" lon="1.5859">
        <ele>1168.1391601562</ele>
        <time>2012-03-10T14:11:18Z</time>
      </trkpt>
      <trkpt lat="42.74765" lon="1.58581">
        <ele>1170.5424804688</ele>
        <time>2012-03-10T14:11:25Z</time>
      </trkpt>
      <trkpt lat="42.74762" lon="1.58566">
        <ele>1171.0231933594</ele>
        <time>2012-03-10T14:11:34Z</time>
      </trkpt>
      <trkpt lat="42.7476" lon="1.58555">
        <ele>1171.984375</ele>
        <time>2012-03-10T14:11:40Z</time>
      </trkpt>
      <trkpt lat="42.74757" lon="1.58544">
        <ele>1173.9069824219</ele>
        <time>2012-03-10T14:11:45Z</time>
      </trkpt>
      <trkpt lat="42.74759" lon="1.58532">
        <ele>1173.4265136719</ele>
        <time>2012-03-10T14:11:52Z</time>
      </trkpt>
      <trkpt lat="42.74761" lon="1.58525">
        <ele>1172.4650878906</ele>
        <time>2012-03-10T14:11:56Z</time>
      </trkpt>
      <trkpt lat="42.74766" lon="1.58515">
        <ele>1172.4650878906</ele>
        <time>2012-03-10T14:12:01Z</time>
      </trkpt>
      <trkpt lat="42.7477" lon="1.58504">
        <ele>1172.9458007812</ele>
        <time>2012-03-10T14:12:07Z</time>
      </trkpt>
      <trkpt lat="42.74776" lon="1.58491">
        <ele>1171.984375</ele>
        <time>2012-03-10T14:12:15Z</time>
      </trkpt>
      <trkpt lat="42.74777" lon="1.58487">
        <ele>1171.984375</ele>
        <time>2012-03-10T14:12:17Z</time>
      </trkpt>
      <trkpt lat="42.74782" lon="1.58476">
        <ele>1170.5424804688</ele>
        <time>2012-03-10T14:12:24Z</time>
      </trkpt>
      <trkpt lat="42.74783" lon="1.58472">
        <ele>1170.5424804688</ele>
        <time>2012-03-10T14:12:26Z</time>
      </trkpt>
      <trkpt lat="42.74786" lon="1.58463">
        <ele>1171.0231933594</ele>
        <time>2012-03-10T14:12:31Z</time>
      </trkpt>
      <trkpt lat="42.74788" lon="1.58453">
        <ele>1171.0231933594</ele>
        <time>2012-03-10T14:12:36Z</time>
      </trkpt>
      <trkpt lat="42.74792" lon="1.58437">
        <ele>1170.5424804688</ele>
        <time>2012-03-10T14:12:44Z</time>
      </trkpt>
      <trkpt lat="42.74795" lon="1.58425">
        <ele>1168.6198730469</ele>
        <time>2012-03-10T14:12:50Z</time>
      </trkpt>
      <trkpt lat="42.74797" lon="1.58418">
        <ele>1167.1779785156</ele>
        <time>2012-03-10T14:12:54Z</time>
      </trkpt>
      <trkpt lat="42.748" lon="1.58408">
        <ele>1163.3325195312</ele>
        <time>2012-03-10T14:13:00Z</time>
      </trkpt>
      <trkpt lat="42.74802" lon="1.58399">
        <ele>1161.890625</ele>
        <time>2012-03-10T14:13:04Z</time>
      </trkpt>
      <trkpt lat="42.74803" lon="1.5839">
        <ele>1162.37109375</ele>
        <time>2012-03-10T14:13:09Z</time>
      </trkpt>
      <trkpt lat="42.74803" lon="1.5838">
        <ele>1161.4099121094</ele>
        <time>2012-03-10T14:13:14Z</time>
      </trkpt>
      <trkpt lat="42.74807" lon="1.58371">
        <ele>1159.9677734375</ele>
        <time>2012-03-10T14:13:20Z</time>
      </trkpt>
      <trkpt lat="42.74807" lon="1.58363">
        <ele>1159.9677734375</ele>
        <time>2012-03-10T14:13:24Z</time>
      </trkpt>
      <trkpt lat="42.74807" lon="1.58348">
        <ele>1159.4873046875</ele>
        <time>2012-03-10T14:13:32Z</time>
      </trkpt>
      <trkpt lat="42.74807" lon="1.58331">
        <ele>1160.4484863281</ele>
        <time>2012-03-10T14:13:40Z</time>
      </trkpt>
      <trkpt lat="42.74807" lon="1.58317">
        <ele>1161.4099121094</ele>
        <time>2012-03-10T14:13:47Z</time>
      </trkpt>
      <trkpt lat="42.74807" lon="1.58309">
        <ele>1159.0065917969</ele>
        <time>2012-03-10T14:13:52Z</time>
      </trkpt>
      <trkpt lat="42.74807" lon="1.58299">
        <ele>1159.4873046875</ele>
        <time>2012-03-10T14:13:57Z</time>
      </trkpt>
      <trkpt lat="42.74808" lon="1.58285">
        <ele>1158.5258789062</ele>
        <time>2012-03-10T14:14:04Z</time>
      </trkpt>
      <trkpt lat="42.74808" lon="1.58269">
        <ele>1158.5258789062</ele>
        <time>2012-03-10T14:14:12Z</time>
      </trkpt>
      <trkpt lat="42.74811" lon="1.58255">
        <ele>1156.6032714844</ele>
        <time>2012-03-10T14:14:19Z</time>
      </trkpt>
      <trkpt lat="42.74816" lon="1.58242">
        <ele>1154.6806640625</ele>
        <time>2012-03-10T14:14:27Z</time>
      </trkpt>
      <trkpt lat="42.7482" lon="1.58231">
        <ele>1153.2387695312</ele>
        <time>2012-03-10T14:14:34Z</time>
      </trkpt>
      <trkpt lat="42.74823" lon="1.58218">
        <ele>1152.7580566406</ele>
        <time>2012-03-10T14:14:42Z</time>
      </trkpt>
      <trkpt lat="42.74825" lon="1.58207">
        <ele>1153.2387695312</ele>
        <time>2012-03-10T14:14:48Z</time>
      </trkpt>
      <trkpt lat="42.74826" lon="1.58209">
        <ele>1152.27734375</ele>
        <time>2012-03-10T14:14:52Z</time>
      </trkpt>
      <trkpt lat="42.74826" lon="1.5821">
        <ele>1152.27734375</ele>
        <time>2012-03-10T14:14:53Z</time>
      </trkpt>
      <trkpt lat="42.74825" lon="1.58217">
        <ele>1152.7580566406</ele>
        <time>2012-03-10T14:14:59Z</time>
      </trkpt>
      <trkpt lat="42.74823" lon="1.58226">
        <ele>1149.8742675781</ele>
        <time>2012-03-10T14:15:05Z</time>
      </trkpt>
      <trkpt lat="42.74821" lon="1.58234">
        <ele>1149.3935546875</ele>
        <time>2012-03-10T14:15:11Z</time>
      </trkpt>
      <trkpt lat="42.74822" lon="1.58238">
        <ele>1148.9128417969</ele>
        <time>2012-03-10T14:15:14Z</time>
      </trkpt>
      <trkpt lat="42.74826" lon="1.5824">
        <ele>1149.3935546875</ele>
        <time>2012-03-10T14:15:21Z</time>
      </trkpt>
      <trkpt lat="42.74828" lon="1.58237">
        <ele>1149.8742675781</ele>
        <time>2012-03-10T14:15:27Z</time>
      </trkpt>
      <trkpt lat="42.7483" lon="1.58241">
        <ele>1151.3161621094</ele>
        <time>2012-03-10T14:15:32Z</time>
      </trkpt>
      <trkpt lat="42.74831" lon="1.58243">
        <ele>1152.7580566406</ele>
        <time>2012-03-10T14:15:38Z</time>
      </trkpt>
      <trkpt lat="42.74833" lon="1.58241">
        <ele>1153.7194824219</ele>
        <time>2012-03-10T14:15:42Z</time>
      </trkpt>
      <trkpt lat="42.74835" lon="1.58238">
        <ele>1153.7194824219</ele>
        <time>2012-03-10T14:15:47Z</time>
      </trkpt>
      <trkpt lat="42.74837" lon="1.58234">
        <ele>1154.6806640625</ele>
        <time>2012-03-10T14:15:52Z</time>
      </trkpt>
      <trkpt lat="42.7484" lon="1.58231">
        <ele>1154.2001953125</ele>
        <time>2012-03-10T14:15:57Z</time>
      </trkpt>
      <trkpt lat="42.74842" lon="1.5823">
        <ele>1153.7194824219</ele>
        <time>2012-03-10T14:16:02Z</time>
      </trkpt>
      <trkpt lat="42.74843" lon="1.5823">
        <ele>1153.7194824219</ele>
        <time>2012-03-10T14:16:08Z</time>
      </trkpt>
      <trkpt lat="42.74845" lon="1.58234">
        <ele>1153.7194824219</ele>
        <time>2012-03-10T14:16:14Z</time>
      </trkpt>
      <trkpt lat="42.74847" lon="1.58235">
        <ele>1153.7194824219</ele>
        <time>2012-03-10T14:16:21Z</time>
      </trkpt>
      <trkpt lat="42.74849" lon="1.58233">
        <ele>1154.2001953125</ele>
        <time>2012-03-10T14:16:27Z</time>
      </trkpt>
      <trkpt lat="42.7485" lon="1.5823">
        <ele>1154.6806640625</ele>
        <time>2012-03-10T14:16:34Z</time>
      </trkpt>
      <trkpt lat="42.74847" lon="1.58229">
        <ele>1155.1613769531</ele>
        <time>2012-03-10T14:16:54Z</time>
      </trkpt>
      <trkpt lat="42.74846" lon="1.58233">
        <ele>1156.6032714844</ele>
        <time>2012-03-10T14:17:00Z</time>
      </trkpt>
      <trkpt lat="42.74844" lon="1.58235">
        <ele>1159.0065917969</ele>
        <time>2012-03-10T14:17:06Z</time>
      </trkpt>
      <trkpt lat="42.74842" lon="1.58234">
        <ele>1157.5646972656</ele>
        <time>2012-03-10T14:17:13Z</time>
      </trkpt>
      <trkpt lat="42.74841" lon="1.58231">
        <ele>1156.1225585938</ele>
        <time>2012-03-10T14:17:21Z</time>
      </trkpt>
      <trkpt lat="42.74839" lon="1.58235">
        <ele>1154.6806640625</ele>
        <time>2012-03-10T14:17:29Z</time>
      </trkpt>
      <trkpt lat="42.74835" lon="1.5824">
        <ele>1153.7194824219</ele>
        <time>2012-03-10T14:17:34Z</time>
      </trkpt>
      <trkpt lat="42.74832" lon="1.58245">
        <ele>1154.2001953125</ele>
        <time>2012-03-10T14:17:41Z</time>
      </trkpt>
      <trkpt lat="42.7483" lon="1.58244">
        <ele>1153.2387695312</ele>
        <time>2012-03-10T14:17:46Z</time>
      </trkpt>
      <trkpt lat="42.74829" lon="1.58238">
        <ele>1151.796875</ele>
        <time>2012-03-10T14:17:53Z</time>
      </trkpt>
      <trkpt lat="42.74828" lon="1.58239">
        <ele>1151.3161621094</ele>
        <time>2012-03-10T14:17:59Z</time>
      </trkpt>
      <trkpt lat="42.74826" lon="1.5824">
        <ele>1149.3935546875</ele>
        <time>2012-03-10T14:18:04Z</time>
      </trkpt>
      <trkpt lat="42.74823" lon="1.58239">
        <ele>1146.5095214844</ele>
        <time>2012-03-10T14:18:10Z</time>
      </trkpt>
      <trkpt lat="42.74823" lon="1.58238">
        <ele>1146.0288085938</ele>
        <time>2012-03-10T14:18:11Z</time>
      </trkpt>
      <trkpt lat="42.74823" lon="1.58228">
        <ele>1147.470703125</ele>
        <time>2012-03-10T14:18:16Z</time>
      </trkpt>
      <trkpt lat="42.74825" lon="1.58217">
        <ele>1148.9128417969</ele>
        <time>2012-03-10T14:18:23Z</time>
      </trkpt>
      <trkpt lat="42.74823" lon="1.5821">
        <ele>1157.083984375</ele>
        <time>2012-03-10T14:18:28Z</time>
      </trkpt>
      <trkpt lat="42.74826" lon="1.58191">
        <ele>1158.5258789062</ele>
        <time>2012-03-10T14:18:38Z</time>
      </trkpt>
      <trkpt lat="42.74831" lon="1.58177">
        <ele>1155.6420898438</ele>
        <time>2012-03-10T14:18:47Z</time>
      </trkpt>
      <trkpt lat="42.74834" lon="1.58166">
        <ele>1154.6806640625</ele>
        <time>2012-03-10T14:18:54Z</time>
      </trkpt>
      <trkpt lat="42.74842" lon="1.5816">
        <ele>1151.3161621094</ele>
        <time>2012-03-10T14:19:01Z</time>
      </trkpt>
      <trkpt lat="42.74852" lon="1.58157">
        <ele>1148.9128417969</ele>
        <time>2012-03-10T14:19:08Z</time>
      </trkpt>
      <trkpt lat="42.74858" lon="1.58156">
        <ele>1148.9128417969</ele>
        <time>2012-03-10T14:19:12Z</time>
      </trkpt>
      <trkpt lat="42.74868" lon="1.58157">
        <ele>1147.9514160156</ele>
        <time>2012-03-10T14:19:19Z</time>
      </trkpt>
      <trkpt lat="42.74875" lon="1.58157">
        <ele>1146.9899902344</ele>
        <time>2012-03-10T14:19:25Z</time>
      </trkpt>
      <trkpt lat="42.74881" lon="1.58157">
        <ele>1145.0673828125</ele>
        <time>2012-03-10T14:19:29Z</time>
      </trkpt>
      <trkpt lat="42.74889" lon="1.58158">
        <ele>1140.2609863281</ele>
        <time>2012-03-10T14:19:35Z</time>
      </trkpt>
      <trkpt lat="42.74896" lon="1.58157">
        <ele>1139.7802734375</ele>
        <time>2012-03-10T14:19:40Z</time>
      </trkpt>
      <trkpt lat="42.74899" lon="1.58155">
        <ele>1140.7414550781</ele>
        <time>2012-03-10T14:19:42Z</time>
      </trkpt>
      <trkpt lat="42.74907" lon="1.58152">
        <ele>1142.6643066406</ele>
        <time>2012-03-10T14:19:47Z</time>
      </trkpt>
      <trkpt lat="42.74913" lon="1.5815">
        <ele>1142.6643066406</ele>
        <time>2012-03-10T14:19:51Z</time>
      </trkpt>
      <trkpt lat="42.74918" lon="1.58147">
        <ele>1142.6643066406</ele>
        <time>2012-03-10T14:19:55Z</time>
      </trkpt>
      <trkpt lat="42.74923" lon="1.58145">
        <ele>1141.7028808594</ele>
        <time>2012-03-10T14:19:58Z</time>
      </trkpt>
      <trkpt lat="42.74928" lon="1.58139">
        <ele>1144.5866699219</ele>
        <time>2012-03-10T14:20:03Z</time>
      </trkpt>
      <trkpt lat="42.74929" lon="1.58138">
        <ele>1144.5866699219</ele>
        <time>2012-03-10T14:20:04Z</time>
      </trkpt>
      <trkpt lat="42.74936" lon="1.58131">
        <ele>1144.5866699219</ele>
        <time>2012-03-10T14:20:10Z</time>
      </trkpt>
      <trkpt lat="42.74946" lon="1.58126">
        <ele>1142.18359375</ele>
        <time>2012-03-10T14:20:17Z</time>
      </trkpt>
      <trkpt lat="42.74955" lon="1.58122">
        <ele>1139.7802734375</ele>
        <time>2012-03-10T14:20:24Z</time>
      </trkpt>
      <trkpt lat="42.74958" lon="1.5812">
        <ele>1139.7802734375</ele>
        <time>2012-03-10T14:20:26Z</time>
      </trkpt>
      <trkpt lat="42.74965" lon="1.58115">
        <ele>1138.8190917969</ele>
        <time>2012-03-10T14:20:31Z</time>
      </trkpt>
      <trkpt lat="42.74971" lon="1.58109">
        <ele>1140.2609863281</ele>
        <time>2012-03-10T14:20:35Z</time>
      </trkpt>
      <trkpt lat="42.74976" lon="1.58104">
        <ele>1140.7414550781</ele>
        <time>2012-03-10T14:20:39Z</time>
      </trkpt>
      <trkpt lat="42.74983" lon="1.58091">
        <ele>1145.5480957031</ele>
        <time>2012-03-10T14:20:46Z</time>
      </trkpt>
      <trkpt lat="42.74987" lon="1.58084">
        <ele>1143.6254882812</ele>
        <time>2012-03-10T14:20:50Z</time>
      </trkpt>
      <trkpt lat="42.74988" lon="1.5808">
        <ele>1145.0673828125</ele>
        <time>2012-03-10T14:20:52Z</time>
      </trkpt>
      <trkpt lat="42.74991" lon="1.58069">
        <ele>1147.9514160156</ele>
        <time>2012-03-10T14:20:57Z</time>
      </trkpt>
      <trkpt lat="42.74989" lon="1.5806">
        <ele>1149.8742675781</ele>
        <time>2012-03-10T14:21:00Z</time>
      </trkpt>
      <trkpt lat="42.7499" lon="1.58058">
        <ele>1150.3549804688</ele>
        <time>2012-03-10T14:21:01Z</time>
      </trkpt>
      <trkpt lat="42.74995" lon="1.58051">
        <ele>1144.5866699219</ele>
        <time>2012-03-10T14:21:07Z</time>
      </trkpt>
      <trkpt lat="42.75" lon="1.58046">
        <ele>1141.2221679688</ele>
        <time>2012-03-10T14:21:11Z</time>
      </trkpt>
      <trkpt lat="42.75003" lon="1.58036">
        <ele>1140.2609863281</ele>
        <time>2012-03-10T14:21:16Z</time>
      </trkpt>
      <trkpt lat="42.75005" lon="1.58033">
        <ele>1138.3383789062</ele>
        <time>2012-03-10T14:21:18Z</time>
      </trkpt>
      <trkpt lat="42.75008" lon="1.58026">
        <ele>1134.4931640625</ele>
        <time>2012-03-10T14:21:23Z</time>
      </trkpt>
      <trkpt lat="42.75012" lon="1.58015">
        <ele>1131.1284179688</ele>
        <time>2012-03-10T14:21:27Z</time>
      </trkpt>
      <trkpt lat="42.75013" lon="1.58011">
        <ele>1129.6862792969</ele>
        <time>2012-03-10T14:21:28Z</time>
      </trkpt>
      <trkpt lat="42.75017" lon="1.57999">
        <ele>1125.3603515625</ele>
        <time>2012-03-10T14:21:34Z</time>
      </trkpt>
      <trkpt lat="42.75018" lon="1.57992">
        <ele>1124.8798828125</ele>
        <time>2012-03-10T14:21:37Z</time>
      </trkpt>
      <trkpt lat="42.75019" lon="1.57987">
        <ele>1124.8798828125</ele>
        <time>2012-03-10T14:21:39Z</time>
      </trkpt>
      <trkpt lat="42.7502" lon="1.57984">
        <ele>1125.8410644531</ele>
        <time>2012-03-10T14:21:41Z</time>
      </trkpt>
      <trkpt lat="42.75021" lon="1.57977">
        <ele>1124.3991699219</ele>
        <time>2012-03-10T14:21:44Z</time>
      </trkpt>
      <trkpt lat="42.75022" lon="1.57974">
        <ele>1123.4379882812</ele>
        <time>2012-03-10T14:21:46Z</time>
      </trkpt>
      <trkpt lat="42.75026" lon="1.57965">
        <ele>1120.5539550781</ele>
        <time>2012-03-10T14:21:52Z</time>
      </trkpt>
      <trkpt lat="42.75029" lon="1.5795">
        <ele>1123.9184570312</ele>
        <time>2012-03-10T14:21:58Z</time>
      </trkpt>
      <trkpt lat="42.7503" lon="1.57937">
        <ele>1126.8024902344</ele>
        <time>2012-03-10T14:22:03Z</time>
      </trkpt>
      <trkpt lat="42.75032" lon="1.57933">
        <ele>1127.283203125</ele>
        <time>2012-03-10T14:22:05Z</time>
      </trkpt>
      <trkpt lat="42.75032" lon="1.57922">
        <ele>1126.3217773438</ele>
        <time>2012-03-10T14:22:10Z</time>
      </trkpt>
      <trkpt lat="42.75035" lon="1.57915">
        <ele>1123.4379882812</ele>
        <time>2012-03-10T14:22:14Z</time>
      </trkpt>
      <trkpt lat="42.75035" lon="1.57912">
        <ele>1124.3991699219</ele>
        <time>2012-03-10T14:22:15Z</time>
      </trkpt>
      <trkpt lat="42.75037" lon="1.57899">
        <ele>1120.5539550781</ele>
        <time>2012-03-10T14:22:22Z</time>
      </trkpt>
      <trkpt lat="42.75037" lon="1.57887">
        <ele>1119.5927734375</ele>
        <time>2012-03-10T14:22:27Z</time>
      </trkpt>
      <trkpt lat="42.75037" lon="1.57877">
        <ele>1119.1120605469</ele>
        <time>2012-03-10T14:22:32Z</time>
      </trkpt>
      <trkpt lat="42.75038" lon="1.57867">
        <ele>1116.2280273438</ele>
        <time>2012-03-10T14:22:38Z</time>
      </trkpt>
      <trkpt lat="42.75037" lon="1.57864">
        <ele>1116.2280273438</ele>
        <time>2012-03-10T14:22:39Z</time>
      </trkpt>
      <trkpt lat="42.75037" lon="1.57853">
        <ele>1111.9020996094</ele>
        <time>2012-03-10T14:22:46Z</time>
      </trkpt>
      <trkpt lat="42.75036" lon="1.57842">
        <ele>1111.9020996094</ele>
        <time>2012-03-10T14:22:51Z</time>
      </trkpt>
      <trkpt lat="42.75035" lon="1.57835">
        <ele>1111.9020996094</ele>
        <time>2012-03-10T14:22:53Z</time>
      </trkpt>
      <trkpt lat="42.75035" lon="1.57825">
        <ele>1111.4213867188</ele>
        <time>2012-03-10T14:22:57Z</time>
      </trkpt>
      <trkpt lat="42.75036" lon="1.57806">
        <ele>1109.9792480469</ele>
        <time>2012-03-10T14:23:07Z</time>
      </trkpt>
      <trkpt lat="42.75036" lon="1.57804">
        <ele>1109.4987792969</ele>
        <time>2012-03-10T14:23:08Z</time>
      </trkpt>
      <trkpt lat="42.75036" lon="1.57796">
        <ele>1109.0180664062</ele>
        <time>2012-03-10T14:23:12Z</time>
      </trkpt>
      <trkpt lat="42.75034" lon="1.57784">
        <ele>1109.0180664062</ele>
        <time>2012-03-10T14:23:18Z</time>
      </trkpt>
      <trkpt lat="42.75035" lon="1.57773">
        <ele>1107.0954589844</ele>
        <time>2012-03-10T14:23:24Z</time>
      </trkpt>
      <trkpt lat="42.75035" lon="1.57762">
        <ele>1103.2502441406</ele>
        <time>2012-03-10T14:23:30Z</time>
      </trkpt>
      <trkpt lat="42.75036" lon="1.57758">
        <ele>1099.8854980469</ele>
        <time>2012-03-10T14:23:33Z</time>
      </trkpt>
      <trkpt lat="42.75037" lon="1.57753">
        <ele>1097.962890625</ele>
        <time>2012-03-10T14:23:36Z</time>
      </trkpt>
      <trkpt lat="42.75036" lon="1.57746">
        <ele>1098.443359375</ele>
        <time>2012-03-10T14:23:40Z</time>
      </trkpt>
      <trkpt lat="42.75035" lon="1.57737">
        <ele>1101.8083496094</ele>
        <time>2012-03-10T14:23:44Z</time>
      </trkpt>
      <trkpt lat="42.75033" lon="1.57723">
        <ele>1105.1728515625</ele>
        <time>2012-03-10T14:23:49Z</time>
      </trkpt>
      <trkpt lat="42.75031" lon="1.57713">
        <ele>1102.2888183594</ele>
        <time>2012-03-10T14:23:54Z</time>
      </trkpt>
      <trkpt lat="42.75029" lon="1.57703">
        <ele>1099.8854980469</ele>
        <time>2012-03-10T14:23:59Z</time>
      </trkpt>
      <trkpt lat="42.75029" lon="1.57692">
        <ele>1097.0014648438</ele>
        <time>2012-03-10T14:24:05Z</time>
      </trkpt>
      <trkpt lat="42.75032" lon="1.5768">
        <ele>1093.6369628906</ele>
        <time>2012-03-10T14:24:11Z</time>
      </trkpt>
      <trkpt lat="42.75039" lon="1.57668">
        <ele>1093.6369628906</ele>
        <time>2012-03-10T14:24:18Z</time>
      </trkpt>
      <trkpt lat="42.75043" lon="1.57658">
        <ele>1093.6369628906</ele>
        <time>2012-03-10T14:24:23Z</time>
      </trkpt>
      <trkpt lat="42.75048" lon="1.5765">
        <ele>1093.15625</ele>
        <time>2012-03-10T14:24:28Z</time>
      </trkpt>
      <trkpt lat="42.75056" lon="1.5764">
        <ele>1091.2336425781</ele>
        <time>2012-03-10T14:24:35Z</time>
      </trkpt>
      <trkpt lat="42.75062" lon="1.57634">
        <ele>1092.67578125</ele>
        <time>2012-03-10T14:24:40Z</time>
      </trkpt>
      <trkpt lat="42.75072" lon="1.57629">
        <ele>1094.5981445312</ele>
        <time>2012-03-10T14:24:47Z</time>
      </trkpt>
      <trkpt lat="42.7508" lon="1.5763">
        <ele>1094.1176757812</ele>
        <time>2012-03-10T14:24:52Z</time>
      </trkpt>
      <trkpt lat="42.75092" lon="1.57632">
        <ele>1091.7143554688</ele>
        <time>2012-03-10T14:24:59Z</time>
      </trkpt>
      <trkpt lat="42.75103" lon="1.57634">
        <ele>1089.7917480469</ele>
        <time>2012-03-10T14:25:06Z</time>
      </trkpt>
      <trkpt lat="42.75113" lon="1.57636">
        <ele>1087.3884277344</ele>
        <time>2012-03-10T14:25:13Z</time>
      </trkpt>
      <trkpt lat="42.75121" lon="1.57636">
        <ele>1088.3498535156</ele>
        <time>2012-03-10T14:25:17Z</time>
      </trkpt>
      <trkpt lat="42.75127" lon="1.57634">
        <ele>1088.8305664062</ele>
        <time>2012-03-10T14:25:22Z</time>
      </trkpt>
      <trkpt lat="42.75135" lon="1.57629">
        <ele>1089.3110351562</ele>
        <time>2012-03-10T14:25:27Z</time>
      </trkpt>
      <trkpt lat="42.75143" lon="1.57622">
        <ele>1093.15625</ele>
        <time>2012-03-10T14:25:33Z</time>
      </trkpt>
      <trkpt lat="42.75145" lon="1.57619">
        <ele>1094.5981445312</ele>
        <time>2012-03-10T14:25:35Z</time>
      </trkpt>
      <trkpt lat="42.7515" lon="1.57613">
        <ele>1096.5209960938</ele>
        <time>2012-03-10T14:25:40Z</time>
      </trkpt>
      <trkpt lat="42.75159" lon="1.57611">
        <ele>1096.5209960938</ele>
        <time>2012-03-10T14:25:44Z</time>
      </trkpt>
      <trkpt lat="42.75165" lon="1.57609">
        <ele>1093.15625</ele>
        <time>2012-03-10T14:25:48Z</time>
      </trkpt>
      <trkpt lat="42.75172" lon="1.57604">
        <ele>1092.1950683594</ele>
        <time>2012-03-10T14:25:55Z</time>
      </trkpt>
      <trkpt lat="42.75182" lon="1.57603">
        <ele>1087.3884277344</ele>
        <time>2012-03-10T14:26:02Z</time>
      </trkpt>
      <trkpt lat="42.7519" lon="1.57604">
        <ele>1084.5046386719</ele>
        <time>2012-03-10T14:26:08Z</time>
      </trkpt>
      <trkpt lat="42.75197" lon="1.57602">
        <ele>1083.54296875</ele>
        <time>2012-03-10T14:26:13Z</time>
      </trkpt>
      <trkpt lat="42.75207" lon="1.576">
        <ele>1085.4658203125</ele>
        <time>2012-03-10T14:26:19Z</time>
      </trkpt>
      <trkpt lat="42.75214" lon="1.57598">
        <ele>1084.9853515625</ele>
        <time>2012-03-10T14:26:24Z</time>
      </trkpt>
      <trkpt lat="42.75219" lon="1.57594">
        <ele>1089.3110351562</ele>
        <time>2012-03-10T14:26:29Z</time>
      </trkpt>
      <trkpt lat="42.75226" lon="1.57591">
        <ele>1090.2724609375</ele>
        <time>2012-03-10T14:26:34Z</time>
      </trkpt>
      <trkpt lat="42.75234" lon="1.5759">
        <ele>1090.7529296875</ele>
        <time>2012-03-10T14:26:39Z</time>
      </trkpt>
      <trkpt lat="42.75237" lon="1.57586">
        <ele>1092.1950683594</ele>
        <time>2012-03-10T14:26:43Z</time>
      </trkpt>
      <trkpt lat="42.7524" lon="1.57584">
        <ele>1092.1950683594</ele>
        <time>2012-03-10T14:26:45Z</time>
      </trkpt>
      <trkpt lat="42.75249" lon="1.57589">
        <ele>1086.4272460938</ele>
        <time>2012-03-10T14:26:49Z</time>
      </trkpt>
      <trkpt lat="42.75253" lon="1.57591">
        <ele>1084.5046386719</ele>
        <time>2012-03-10T14:26:51Z</time>
      </trkpt>
      <trkpt lat="42.75261" lon="1.57588">
        <ele>1080.6591796875</ele>
        <time>2012-03-10T14:26:57Z</time>
      </trkpt>
      <trkpt lat="42.7527" lon="1.57587">
        <ele>1079.2170410156</ele>
        <time>2012-03-10T14:27:03Z</time>
      </trkpt>
      <trkpt lat="42.75274" lon="1.57582">
        <ele>1076.8139648438</ele>
        <time>2012-03-10T14:27:07Z</time>
      </trkpt>
      <trkpt lat="42.75283" lon="1.57578">
        <ele>1073.4494628906</ele>
        <time>2012-03-10T14:27:13Z</time>
      </trkpt>
      <trkpt lat="42.75285" lon="1.57576">
        <ele>1073.4494628906</ele>
        <time>2012-03-10T14:27:15Z</time>
      </trkpt>
      <trkpt lat="42.75298" lon="1.57576">
        <ele>1071.0461425781</ele>
        <time>2012-03-10T14:27:24Z</time>
      </trkpt>
      <trkpt lat="42.75303" lon="1.57578">
        <ele>1070.5654296875</ele>
        <time>2012-03-10T14:27:27Z</time>
      </trkpt>
      <trkpt lat="42.75308" lon="1.57579">
        <ele>1070.0847167969</ele>
        <time>2012-03-10T14:27:32Z</time>
      </trkpt>
      <trkpt lat="42.75312" lon="1.57577">
        <ele>1072.4880371094</ele>
        <time>2012-03-10T14:27:36Z</time>
      </trkpt>
      <trkpt lat="42.75313" lon="1.57577">
        <ele>1073.4494628906</ele>
        <time>2012-03-10T14:27:37Z</time>
      </trkpt>
      <trkpt lat="42.75324" lon="1.57571">
        <ele>1074.8913574219</ele>
        <time>2012-03-10T14:27:44Z</time>
      </trkpt>
      <trkpt lat="42.75328" lon="1.57571">
        <ele>1073.9299316406</ele>
        <time>2012-03-10T14:27:46Z</time>
      </trkpt>
      <trkpt lat="42.75335" lon="1.57572">
        <ele>1072.4880371094</ele>
        <time>2012-03-10T14:27:50Z</time>
      </trkpt>
      <trkpt lat="42.75347" lon="1.57579">
        <ele>1070.0847167969</ele>
        <time>2012-03-10T14:27:57Z</time>
      </trkpt>
      <trkpt lat="42.75354" lon="1.57585">
        <ele>1067.6811523438</ele>
        <time>2012-03-10T14:28:02Z</time>
      </trkpt>
      <trkpt lat="42.75359" lon="1.57591">
        <ele>1069.1235351562</ele>
        <time>2012-03-10T14:28:07Z</time>
      </trkpt>
      <trkpt lat="42.75368" lon="1.57596">
        <ele>1072.4880371094</ele>
        <time>2012-03-10T14:28:13Z</time>
      </trkpt>
      <trkpt lat="42.7537" lon="1.57597">
        <ele>1072.4880371094</ele>
        <time>2012-03-10T14:28:14Z</time>
      </trkpt>
      <trkpt lat="42.7538" lon="1.57597">
        <ele>1071.5266113281</ele>
        <time>2012-03-10T14:28:20Z</time>
      </trkpt>
      <trkpt lat="42.75386" lon="1.57599">
        <ele>1071.0461425781</ele>
        <time>2012-03-10T14:28:25Z</time>
      </trkpt>
      <trkpt lat="42.75393" lon="1.57599">
        <ele>1072.4880371094</ele>
        <time>2012-03-10T14:28:29Z</time>
      </trkpt>
      <trkpt lat="42.75394" lon="1.57599">
        <ele>1072.96875</ele>
        <time>2012-03-10T14:28:30Z</time>
      </trkpt>
      <trkpt lat="42.75401" lon="1.57599">
        <ele>1070.5654296875</ele>
        <time>2012-03-10T14:28:35Z</time>
      </trkpt>
      <trkpt lat="42.75406" lon="1.57599">
        <ele>1070.0847167969</ele>
        <time>2012-03-10T14:28:38Z</time>
      </trkpt>
      <trkpt lat="42.75413" lon="1.57599">
        <ele>1068.162109375</ele>
        <time>2012-03-10T14:28:42Z</time>
      </trkpt>
      <trkpt lat="42.75416" lon="1.57599">
        <ele>1068.162109375</ele>
        <time>2012-03-10T14:28:44Z</time>
      </trkpt>
      <trkpt lat="42.75426" lon="1.57597">
        <ele>1066.7199707031</ele>
        <time>2012-03-10T14:28:51Z</time>
      </trkpt>
      <trkpt lat="42.75435" lon="1.57594">
        <ele>1064.7973632812</ele>
        <time>2012-03-10T14:28:57Z</time>
      </trkpt>
      <trkpt lat="42.75443" lon="1.57593">
        <ele>1062.3940429688</ele>
        <time>2012-03-10T14:29:03Z</time>
      </trkpt>
      <trkpt lat="42.75452" lon="1.57593">
        <ele>1059.5102539062</ele>
        <time>2012-03-10T14:29:09Z</time>
      </trkpt>
      <trkpt lat="42.75462" lon="1.57593">
        <ele>1058.068359375</ele>
        <time>2012-03-10T14:29:15Z</time>
      </trkpt>
      <trkpt lat="42.75471" lon="1.57593">
        <ele>1058.068359375</ele>
        <time>2012-03-10T14:29:21Z</time>
      </trkpt>
      <trkpt lat="42.75474" lon="1.57593">
        <ele>1058.068359375</ele>
        <time>2012-03-10T14:29:23Z</time>
      </trkpt>
      <trkpt lat="42.75483" lon="1.5759">
        <ele>1058.548828125</ele>
        <time>2012-03-10T14:29:29Z</time>
      </trkpt>
      <trkpt lat="42.75484" lon="1.5759">
        <ele>1059.0295410156</ele>
        <time>2012-03-10T14:29:30Z</time>
      </trkpt>
      <trkpt lat="42.75492" lon="1.57587">
        <ele>1058.068359375</ele>
        <time>2012-03-10T14:29:35Z</time>
      </trkpt>
      <trkpt lat="42.75499" lon="1.57584">
        <ele>1057.5876464844</ele>
        <time>2012-03-10T14:29:40Z</time>
      </trkpt>
      <trkpt lat="42.7551" lon="1.57582">
        <ele>1055.6650390625</ele>
        <time>2012-03-10T14:29:47Z</time>
      </trkpt>
      <trkpt lat="42.75515" lon="1.57582">
        <ele>1054.7036132812</ele>
        <time>2012-03-10T14:29:51Z</time>
      </trkpt>
      <trkpt lat="42.75528" lon="1.57579">
        <ele>1053.26171875</ele>
        <time>2012-03-10T14:29:59Z</time>
      </trkpt>
      <trkpt lat="42.75535" lon="1.57578">
        <ele>1052.7810058594</ele>
        <time>2012-03-10T14:30:04Z</time>
      </trkpt>
      <trkpt lat="42.75543" lon="1.57578">
        <ele>1051.8195800781</ele>
        <time>2012-03-10T14:30:09Z</time>
      </trkpt>
      <trkpt lat="42.75553" lon="1.57578">
        <ele>1050.3776855469</ele>
        <time>2012-03-10T14:30:16Z</time>
      </trkpt>
      <trkpt lat="42.75563" lon="1.57578">
        <ele>1047.9743652344</ele>
        <time>2012-03-10T14:30:22Z</time>
      </trkpt>
      <trkpt lat="42.75576" lon="1.57579">
        <ele>1046.0517578125</ele>
        <time>2012-03-10T14:30:29Z</time>
      </trkpt>
      <trkpt lat="42.75582" lon="1.5758">
        <ele>1045.0903320312</ele>
        <time>2012-03-10T14:30:34Z</time>
      </trkpt>
      <trkpt lat="42.75584" lon="1.5758">
        <ele>1045.0903320312</ele>
        <time>2012-03-10T14:30:35Z</time>
      </trkpt>
      <trkpt lat="42.75593" lon="1.57582">
        <ele>1046.5324707031</ele>
        <time>2012-03-10T14:30:41Z</time>
      </trkpt>
      <trkpt lat="42.75602" lon="1.57583">
        <ele>1045.0903320312</ele>
        <time>2012-03-10T14:30:47Z</time>
      </trkpt>
      <trkpt lat="42.75611" lon="1.57582">
        <ele>1042.6872558594</ele>
        <time>2012-03-10T14:30:53Z</time>
      </trkpt>
      <trkpt lat="42.75622" lon="1.57581">
        <ele>1040.7644042969</ele>
        <time>2012-03-10T14:31:00Z</time>
      </trkpt>
      <trkpt lat="42.75633" lon="1.5758">
        <ele>1039.8032226562</ele>
        <time>2012-03-10T14:31:07Z</time>
      </trkpt>
      <trkpt lat="42.75645" lon="1.57579">
        <ele>1037.3999023438</ele>
        <time>2012-03-10T14:31:15Z</time>
      </trkpt>
      <trkpt lat="42.75656" lon="1.57576">
        <ele>1035.4770507812</ele>
        <time>2012-03-10T14:31:22Z</time>
      </trkpt>
      <trkpt lat="42.75669" lon="1.57574">
        <ele>1034.03515625</ele>
        <time>2012-03-10T14:31:30Z</time>
      </trkpt>
      <trkpt lat="42.75678" lon="1.5758">
        <ele>1033.0737304688</ele>
        <time>2012-03-10T14:31:37Z</time>
      </trkpt>
      <trkpt lat="42.75685" lon="1.57587">
        <ele>1031.1513671875</ele>
        <time>2012-03-10T14:31:42Z</time>
      </trkpt>
      <trkpt lat="42.75692" lon="1.57591">
        <ele>1029.228515625</ele>
        <time>2012-03-10T14:31:48Z</time>
      </trkpt>
      <trkpt lat="42.75697" lon="1.57594">
        <ele>1027.7866210938</ele>
        <time>2012-03-10T14:31:52Z</time>
      </trkpt>
      <trkpt lat="42.75698" lon="1.57595">
        <ele>1027.7866210938</ele>
        <time>2012-03-10T14:31:53Z</time>
      </trkpt>
      <trkpt lat="42.75705" lon="1.57599">
        <ele>1028.748046875</ele>
        <time>2012-03-10T14:31:57Z</time>
      </trkpt>
      <trkpt lat="42.75716" lon="1.57605">
        <ele>1029.7092285156</ele>
        <time>2012-03-10T14:32:04Z</time>
      </trkpt>
      <trkpt lat="42.75719" lon="1.57607">
        <ele>1030.1899414062</ele>
        <time>2012-03-10T14:32:06Z</time>
      </trkpt>
      <trkpt lat="42.75724" lon="1.57616">
        <ele>1030.1899414062</ele>
        <time>2012-03-10T14:32:11Z</time>
      </trkpt>
      <trkpt lat="42.75729" lon="1.57624">
        <ele>1029.7092285156</ele>
        <time>2012-03-10T14:32:16Z</time>
      </trkpt>
      <trkpt lat="42.75733" lon="1.57634">
        <ele>1027.3061523438</ele>
        <time>2012-03-10T14:32:22Z</time>
      </trkpt>
      <trkpt lat="42.75738" lon="1.57638">
        <ele>1026.8254394531</ele>
        <time>2012-03-10T14:32:26Z</time>
      </trkpt>
      <trkpt lat="42.75739" lon="1.57639">
        <ele>1026.8254394531</ele>
        <time>2012-03-10T14:32:27Z</time>
      </trkpt>
      <trkpt lat="42.75746" lon="1.57644">
        <ele>1024.9028320312</ele>
        <time>2012-03-10T14:32:33Z</time>
      </trkpt>
      <trkpt lat="42.7575" lon="1.57645">
        <ele>1024.4221191406</ele>
        <time>2012-03-10T14:32:37Z</time>
      </trkpt>
      <trkpt lat="42.75755" lon="1.57646">
        <ele>1024.9028320312</ele>
        <time>2012-03-10T14:32:41Z</time>
      </trkpt>
      <trkpt lat="42.75755" lon="1.57647">
        <ele>1024.4221191406</ele>
        <time>2012-03-10T14:32:42Z</time>
      </trkpt>
      <trkpt lat="42.75763" lon="1.57651">
        <ele>1022.9802246094</ele>
        <time>2012-03-10T14:32:48Z</time>
      </trkpt>
      <trkpt lat="42.75764" lon="1.57653">
        <ele>1023.4609375</ele>
        <time>2012-03-10T14:32:50Z</time>
      </trkpt>
      <trkpt lat="42.75774" lon="1.57658">
        <ele>1023.4609375</ele>
        <time>2012-03-10T14:32:58Z</time>
      </trkpt>
      <trkpt lat="42.75781" lon="1.57662">
        <ele>1022.9802246094</ele>
        <time>2012-03-10T14:33:03Z</time>
      </trkpt>
      <trkpt lat="42.75782" lon="1.57661">
        <ele>1023.4609375</ele>
        <time>2012-03-10T14:33:04Z</time>
      </trkpt>
      <trkpt lat="42.75791" lon="1.57657">
        <ele>1021.5380859375</ele>
        <time>2012-03-10T14:33:11Z</time>
      </trkpt>
      <trkpt lat="42.75792" lon="1.57655">
        <ele>1021.5380859375</ele>
        <time>2012-03-10T14:33:12Z</time>
      </trkpt>
      <trkpt lat="42.75803" lon="1.57643">
        <ele>1022.0187988281</ele>
        <time>2012-03-10T14:33:20Z</time>
      </trkpt>
      <trkpt lat="42.75812" lon="1.57632">
        <ele>1024.4221191406</ele>
        <time>2012-03-10T14:33:28Z</time>
      </trkpt>
      <trkpt lat="42.75813" lon="1.5763">
        <ele>1024.4221191406</ele>
        <time>2012-03-10T14:33:29Z</time>
      </trkpt>
      <trkpt lat="42.75814" lon="1.57613">
        <ele>1035.4770507812</ele>
        <time>2012-03-10T14:33:36Z</time>
      </trkpt>
      <trkpt lat="42.75814" lon="1.57607">
        <ele>1041.2451171875</ele>
        <time>2012-03-10T14:33:38Z</time>
      </trkpt>
      <trkpt lat="42.75814" lon="1.57596">
        <ele>1045.0903320312</ele>
        <time>2012-03-10T14:33:42Z</time>
      </trkpt>
      <trkpt lat="42.75816" lon="1.57593">
        <ele>1046.0517578125</ele>
        <time>2012-03-10T14:33:44Z</time>
      </trkpt>
      <trkpt lat="42.75827" lon="1.57588">
        <ele>1038.361328125</ele>
        <time>2012-03-10T14:33:51Z</time>
      </trkpt>
      <trkpt lat="42.75834" lon="1.57576">
        <ele>1035.9577636719</ele>
        <time>2012-03-10T14:33:58Z</time>
      </trkpt>
      <trkpt lat="42.75839" lon="1.57572">
        <ele>1034.03515625</ele>
        <time>2012-03-10T14:34:02Z</time>
      </trkpt>
      <trkpt lat="42.75848" lon="1.57561">
        <ele>1029.7092285156</ele>
        <time>2012-03-10T14:34:10Z</time>
      </trkpt>
      <trkpt lat="42.7585" lon="1.57552">
        <ele>1033.5544433594</ele>
        <time>2012-03-10T14:34:14Z</time>
      </trkpt>
      <trkpt lat="42.75856" lon="1.5754">
        <ele>1033.0737304688</ele>
        <time>2012-03-10T14:34:21Z</time>
      </trkpt>
      <trkpt lat="42.75861" lon="1.57534">
        <ele>1029.7092285156</ele>
        <time>2012-03-10T14:34:26Z</time>
      </trkpt>
      <trkpt lat="42.75863" lon="1.57526">
        <ele>1033.0737304688</ele>
        <time>2012-03-10T14:34:30Z</time>
      </trkpt>
      <trkpt lat="42.75868" lon="1.57513">
        <ele>1034.03515625</ele>
        <time>2012-03-10T14:34:38Z</time>
      </trkpt>
      <trkpt lat="42.75874" lon="1.57509">
        <ele>1028.2673339844</ele>
        <time>2012-03-10T14:34:44Z</time>
      </trkpt>
      <trkpt lat="42.75878" lon="1.5751">
        <ele>1022.9802246094</ele>
        <time>2012-03-10T14:34:51Z</time>
      </trkpt>
      <trkpt lat="42.75881" lon="1.57507">
        <ele>1021.0576171875</ele>
        <time>2012-03-10T14:34:57Z</time>
      </trkpt>
      <trkpt lat="42.75885" lon="1.57493">
        <ele>1027.7866210938</ele>
        <time>2012-03-10T14:35:04Z</time>
      </trkpt>
      <trkpt lat="42.75887" lon="1.57483">
        <ele>1032.5932617188</ele>
        <time>2012-03-10T14:35:09Z</time>
      </trkpt>
      <trkpt lat="42.75889" lon="1.5748">
        <ele>1032.1125488281</ele>
        <time>2012-03-10T14:35:11Z</time>
      </trkpt>
      <trkpt lat="42.75894" lon="1.57468">
        <ele>1035.4770507812</ele>
        <time>2012-03-10T14:35:18Z</time>
      </trkpt>
      <trkpt lat="42.759" lon="1.5746">
        <ele>1032.5932617188</ele>
        <time>2012-03-10T14:35:24Z</time>
      </trkpt>
      <trkpt lat="42.75909" lon="1.57451">
        <ele>1030.1899414062</ele>
        <time>2012-03-10T14:35:31Z</time>
      </trkpt>
      <trkpt lat="42.75914" lon="1.57438">
        <ele>1034.9965820312</ele>
        <time>2012-03-10T14:35:37Z</time>
      </trkpt>
      <trkpt lat="42.75924" lon="1.57432">
        <ele>1031.6318359375</ele>
        <time>2012-03-10T14:35:45Z</time>
      </trkpt>
      <trkpt lat="42.75928" lon="1.5743">
        <ele>1029.228515625</ele>
        <time>2012-03-10T14:35:48Z</time>
      </trkpt>
      <trkpt lat="42.75933" lon="1.57427">
        <ele>1028.2673339844</ele>
        <time>2012-03-10T14:35:52Z</time>
      </trkpt>
      <trkpt lat="42.75941" lon="1.57424">
        <ele>1024.9028320312</ele>
        <time>2012-03-10T14:35:58Z</time>
      </trkpt>
      <trkpt lat="42.75954" lon="1.57423">
        <ele>1021.5380859375</ele>
        <time>2012-03-10T14:36:05Z</time>
      </trkpt>
      <trkpt lat="42.75963" lon="1.57424">
        <ele>1018.6540527344</ele>
        <time>2012-03-10T14:36:11Z</time>
      </trkpt>
      <trkpt lat="42.75965" lon="1.57424">
        <ele>1017.6926269531</ele>
        <time>2012-03-10T14:36:13Z</time>
      </trkpt>
      <trkpt lat="42.75975" lon="1.57424">
        <ele>1017.2121582031</ele>
        <time>2012-03-10T14:36:20Z</time>
      </trkpt>
      <trkpt lat="42.75979" lon="1.57424">
        <ele>1018.6540527344</ele>
        <time>2012-03-10T14:36:23Z</time>
      </trkpt>
      <trkpt lat="42.75989" lon="1.57422">
        <ele>1017.2121582031</ele>
        <time>2012-03-10T14:36:29Z</time>
      </trkpt>
      <trkpt lat="42.75993" lon="1.57422">
        <ele>1016.7314453125</ele>
        <time>2012-03-10T14:36:33Z</time>
      </trkpt>
      <trkpt lat="42.75994" lon="1.57422">
        <ele>1016.2507324219</ele>
        <time>2012-03-10T14:36:34Z</time>
      </trkpt>
      <trkpt lat="42.76002" lon="1.57429">
        <ele>1008.5603027344</ele>
        <time>2012-03-10T14:36:40Z</time>
      </trkpt>
      <trkpt lat="42.76005" lon="1.57427">
        <ele>1001.3503417969</ele>
        <time>2012-03-10T14:36:46Z</time>
      </trkpt>
      <trkpt lat="42.76009" lon="1.57424">
        <ele>999.427734375</ele>
        <time>2012-03-10T14:36:52Z</time>
      </trkpt>
      <trkpt lat="42.76013" lon="1.57421">
        <ele>999.427734375</ele>
        <time>2012-03-10T14:36:57Z</time>
      </trkpt>
      <trkpt lat="42.76017" lon="1.5742">
        <ele>1000.8696289062</ele>
        <time>2012-03-10T14:37:00Z</time>
      </trkpt>
      <trkpt lat="42.76028" lon="1.57413">
        <ele>1002.3115234375</ele>
        <time>2012-03-10T14:37:06Z</time>
      </trkpt>
      <trkpt lat="42.76037" lon="1.57409">
        <ele>1004.7150878906</ele>
        <time>2012-03-10T14:37:13Z</time>
      </trkpt>
      <trkpt lat="42.76046" lon="1.5741">
        <ele>1003.7536621094</ele>
        <time>2012-03-10T14:37:19Z</time>
      </trkpt>
      <trkpt lat="42.76056" lon="1.57415">
        <ele>1000.3891601562</ele>
        <time>2012-03-10T14:37:25Z</time>
      </trkpt>
      <trkpt lat="42.7606" lon="1.57418">
        <ele>998.94702148438</ele>
        <time>2012-03-10T14:37:28Z</time>
      </trkpt>
      <trkpt lat="42.76073" lon="1.57425">
        <ele>998.94702148438</ele>
        <time>2012-03-10T14:37:35Z</time>
      </trkpt>
      <trkpt lat="42.76079" lon="1.5743">
        <ele>998.94702148438</ele>
        <time>2012-03-10T14:37:40Z</time>
      </trkpt>
      <trkpt lat="42.76081" lon="1.57432">
        <ele>998.46630859375</ele>
        <time>2012-03-10T14:37:42Z</time>
      </trkpt>
      <trkpt lat="42.76086" lon="1.57438">
        <ele>996.5439453125</ele>
        <time>2012-03-10T14:37:48Z</time>
      </trkpt>
      <trkpt lat="42.76095" lon="1.57444">
        <ele>996.06323242188</ele>
        <time>2012-03-10T14:37:54Z</time>
      </trkpt>
      <trkpt lat="42.761" lon="1.57446">
        <ele>995.10180664062</ele>
        <time>2012-03-10T14:37:57Z</time>
      </trkpt>
      <trkpt lat="42.76107" lon="1.57451">
        <ele>993.65991210938</ele>
        <time>2012-03-10T14:38:02Z</time>
      </trkpt>
      <trkpt lat="42.76112" lon="1.57457">
        <ele>994.140625</ele>
        <time>2012-03-10T14:38:06Z</time>
      </trkpt>
      <trkpt lat="42.7612" lon="1.57466">
        <ele>993.17919921875</ele>
        <time>2012-03-10T14:38:13Z</time>
      </trkpt>
      <trkpt lat="42.76122" lon="1.57468">
        <ele>992.69873046875</ele>
        <time>2012-03-10T14:38:15Z</time>
      </trkpt>
      <trkpt lat="42.7613" lon="1.57477">
        <ele>995.58251953125</ele>
        <time>2012-03-10T14:38:21Z</time>
      </trkpt>
      <trkpt lat="42.76134" lon="1.57481">
        <ele>996.5439453125</ele>
        <time>2012-03-10T14:38:24Z</time>
      </trkpt>
      <trkpt lat="42.76139" lon="1.57488">
        <ele>994.62109375</ele>
        <time>2012-03-10T14:38:31Z</time>
      </trkpt>
      <trkpt lat="42.76141" lon="1.5749">
        <ele>997.0244140625</ele>
        <time>2012-03-10T14:38:37Z</time>
      </trkpt>
      <trkpt lat="42.76143" lon="1.5749">
        <ele>997.0244140625</ele>
        <time>2012-03-10T14:38:44Z</time>
      </trkpt>
      <trkpt lat="42.76145" lon="1.57491">
        <ele>996.5439453125</ele>
        <time>2012-03-10T14:38:53Z</time>
      </trkpt>
      <trkpt lat="42.76149" lon="1.57494">
        <ele>996.5439453125</ele>
        <time>2012-03-10T14:38:57Z</time>
      </trkpt>
      <trkpt lat="42.7615" lon="1.57494">
        <ele>997.98583984375</ele>
        <time>2012-03-10T14:38:59Z</time>
      </trkpt>
      <trkpt lat="42.76155" lon="1.575">
        <ele>994.62109375</ele>
        <time>2012-03-10T14:39:03Z</time>
      </trkpt>
      <trkpt lat="42.76161" lon="1.57503">
        <ele>992.69873046875</ele>
        <time>2012-03-10T14:39:08Z</time>
      </trkpt>
      <trkpt lat="42.76167" lon="1.57507">
        <ele>991.7373046875</ele>
        <time>2012-03-10T14:39:13Z</time>
      </trkpt>
      <trkpt lat="42.76173" lon="1.57511">
        <ele>993.17919921875</ele>
        <time>2012-03-10T14:39:19Z</time>
      </trkpt>
      <trkpt lat="42.7618" lon="1.57514">
        <ele>992.69873046875</ele>
        <time>2012-03-10T14:39:24Z</time>
      </trkpt>
      <trkpt lat="42.76188" lon="1.57518">
        <ele>989.333984375</ele>
        <time>2012-03-10T14:39:29Z</time>
      </trkpt>
      <trkpt lat="42.76194" lon="1.57523">
        <ele>983.56591796875</ele>
        <time>2012-03-10T14:39:34Z</time>
      </trkpt>
      <trkpt lat="42.76198" lon="1.57532">
        <ele>977.31762695312</ele>
        <time>2012-03-10T14:39:40Z</time>
      </trkpt>
      <trkpt lat="42.7621" lon="1.57538">
        <ele>977.79809570312</ele>
        <time>2012-03-10T14:39:46Z</time>
      </trkpt>
      <trkpt lat="42.7622" lon="1.57546">
        <ele>980.68212890625</ele>
        <time>2012-03-10T14:39:51Z</time>
      </trkpt>
      <trkpt lat="42.7623" lon="1.57561">
        <ele>988.37280273438</ele>
        <time>2012-03-10T14:39:59Z</time>
      </trkpt>
      <trkpt lat="42.7624" lon="1.57566">
        <ele>993.17919921875</ele>
        <time>2012-03-10T14:40:04Z</time>
      </trkpt>
      <trkpt lat="42.76242" lon="1.57567">
        <ele>990.29541015625</ele>
        <time>2012-03-10T14:40:07Z</time>
      </trkpt>
      <trkpt lat="42.76245" lon="1.57569">
        <ele>986.44995117188</ele>
        <time>2012-03-10T14:40:11Z</time>
      </trkpt>
      <trkpt lat="42.7625" lon="1.57564">
        <ele>991.25659179688</ele>
        <time>2012-03-10T14:40:17Z</time>
      </trkpt>
      <trkpt lat="42.7625" lon="1.57555">
        <ele>999.427734375</ele>
        <time>2012-03-10T14:40:22Z</time>
      </trkpt>
      <trkpt lat="42.7625" lon="1.57544">
        <ele>1010.4829101562</ele>
        <time>2012-03-10T14:40:28Z</time>
      </trkpt>
      <trkpt lat="42.76255" lon="1.5754">
        <ele>1008.0798339844</ele>
        <time>2012-03-10T14:40:32Z</time>
      </trkpt>
      <trkpt lat="42.76258" lon="1.57538">
        <ele>1008.0798339844</ele>
        <time>2012-03-10T14:40:34Z</time>
      </trkpt>
      <trkpt lat="42.76266" lon="1.57538">
        <ele>1003.2729492188</ele>
        <time>2012-03-10T14:40:39Z</time>
      </trkpt>
      <trkpt lat="42.76271" lon="1.57535">
        <ele>1004.7150878906</ele>
        <time>2012-03-10T14:40:43Z</time>
      </trkpt>
      <trkpt lat="42.76275" lon="1.57525">
        <ele>1010.9636230469</ele>
        <time>2012-03-10T14:40:49Z</time>
      </trkpt>
      <trkpt lat="42.76279" lon="1.57524">
        <ele>1008.5603027344</ele>
        <time>2012-03-10T14:40:51Z</time>
      </trkpt>
      <trkpt lat="42.76288" lon="1.5752">
        <ele>1005.1958007812</ele>
        <time>2012-03-10T14:40:56Z</time>
      </trkpt>
      <trkpt lat="42.76294" lon="1.57516">
        <ele>998.94702148438</ele>
        <time>2012-03-10T14:40:59Z</time>
      </trkpt>
      <trkpt lat="42.76299" lon="1.57513">
        <ele>997.50512695312</ele>
        <time>2012-03-10T14:41:03Z</time>
      </trkpt>
      <trkpt lat="42.76305" lon="1.57504">
        <ele>997.0244140625</ele>
        <time>2012-03-10T14:41:08Z</time>
      </trkpt>
      <trkpt lat="42.76308" lon="1.57499">
        <ele>997.50512695312</ele>
        <time>2012-03-10T14:41:11Z</time>
      </trkpt>
      <trkpt lat="42.76315" lon="1.57496">
        <ele>991.7373046875</ele>
        <time>2012-03-10T14:41:16Z</time>
      </trkpt>
      <trkpt lat="42.76325" lon="1.57487">
        <ele>985.00805664062</ele>
        <time>2012-03-10T14:41:24Z</time>
      </trkpt>
      <trkpt lat="42.76326" lon="1.57468">
        <ele>993.65991210938</ele>
        <time>2012-03-10T14:41:32Z</time>
      </trkpt>
      <trkpt lat="42.76327" lon="1.57457">
        <ele>998.46630859375</ele>
        <time>2012-03-10T14:41:37Z</time>
      </trkpt>
      <trkpt lat="42.76327" lon="1.57455">
        <ele>997.98583984375</ele>
        <time>2012-03-10T14:41:38Z</time>
      </trkpt>
      <trkpt lat="42.76336" lon="1.57444">
        <ele>989.333984375</ele>
        <time>2012-03-10T14:41:48Z</time>
      </trkpt>
      <trkpt lat="42.7634" lon="1.5744">
        <ele>983.56591796875</ele>
        <time>2012-03-10T14:41:51Z</time>
      </trkpt>
      <trkpt lat="42.76346" lon="1.57433">
        <ele>975.87548828125</ele>
        <time>2012-03-10T14:41:57Z</time>
      </trkpt>
      <trkpt lat="42.76353" lon="1.57424">
        <ele>969.14624023438</ele>
        <time>2012-03-10T14:42:04Z</time>
      </trkpt>
      <trkpt lat="42.76355" lon="1.57421">
        <ele>968.66552734375</ele>
        <time>2012-03-10T14:42:06Z</time>
      </trkpt>
      <trkpt lat="42.76359" lon="1.57412">
        <ele>964.33959960938</ele>
        <time>2012-03-10T14:42:12Z</time>
      </trkpt>
      <trkpt lat="42.76361" lon="1.57399">
        <ele>961.9365234375</ele>
        <time>2012-03-10T14:42:19Z</time>
      </trkpt>
      <trkpt lat="42.76361" lon="1.57395">
        <ele>960.49438476562</ele>
        <time>2012-03-10T14:42:26Z</time>
      </trkpt>
      <trkpt lat="42.76361" lon="1.5739">
        <ele>959.533203125</ele>
        <time>2012-03-10T14:42:31Z</time>
      </trkpt>
      <trkpt lat="42.76362" lon="1.57383">
        <ele>960.49438476562</ele>
        <time>2012-03-10T14:42:36Z</time>
      </trkpt>
      <trkpt lat="42.76362" lon="1.57376">
        <ele>961.9365234375</ele>
        <time>2012-03-10T14:42:40Z</time>
      </trkpt>
      <trkpt lat="42.76363" lon="1.57365">
        <ele>966.26220703125</ele>
        <time>2012-03-10T14:42:46Z</time>
      </trkpt>
      <trkpt lat="42.76365" lon="1.57353">
        <ele>967.2236328125</ele>
        <time>2012-03-10T14:42:53Z</time>
      </trkpt>
      <trkpt lat="42.76369" lon="1.57342">
        <ele>965.30102539062</ele>
        <time>2012-03-10T14:43:00Z</time>
      </trkpt>
      <trkpt lat="42.76374" lon="1.57334">
        <ele>962.89770507812</ele>
        <time>2012-03-10T14:43:06Z</time>
      </trkpt>
      <trkpt lat="42.76379" lon="1.57329">
        <ele>962.4169921875</ele>
        <time>2012-03-10T14:43:10Z</time>
      </trkpt>
      <trkpt lat="42.76384" lon="1.57323">
        <ele>962.89770507812</ele>
        <time>2012-03-10T14:43:15Z</time>
      </trkpt>
      <trkpt lat="42.76388" lon="1.5732">
        <ele>963.37841796875</ele>
        <time>2012-03-10T14:43:18Z</time>
      </trkpt>
      <trkpt lat="42.76394" lon="1.57309">
        <ele>968.66552734375</ele>
        <time>2012-03-10T14:43:24Z</time>
      </trkpt>
      <trkpt lat="42.764" lon="1.57303">
        <ele>971.54931640625</ele>
        <time>2012-03-10T14:43:30Z</time>
      </trkpt>
      <trkpt lat="42.7641" lon="1.573">
        <ele>967.2236328125</ele>
        <time>2012-03-10T14:43:37Z</time>
      </trkpt>
      <trkpt lat="42.76419" lon="1.57298">
        <ele>963.37841796875</ele>
        <time>2012-03-10T14:43:43Z</time>
      </trkpt>
      <trkpt lat="42.7642" lon="1.57298">
        <ele>962.89770507812</ele>
        <time>2012-03-10T14:43:44Z</time>
      </trkpt>
      <trkpt lat="42.76426" lon="1.57294">
        <ele>961.9365234375</ele>
        <time>2012-03-10T14:43:49Z</time>
      </trkpt>
      <trkpt lat="42.76434" lon="1.57287">
        <ele>959.533203125</ele>
        <time>2012-03-10T14:43:55Z</time>
      </trkpt>
      <trkpt lat="42.7644" lon="1.57281">
        <ele>958.57177734375</ele>
        <time>2012-03-10T14:44:00Z</time>
      </trkpt>
      <trkpt lat="42.76442" lon="1.57279">
        <ele>958.57177734375</ele>
        <time>2012-03-10T14:44:02Z</time>
      </trkpt>
      <trkpt lat="42.76445" lon="1.57274">
        <ele>958.57177734375</ele>
        <time>2012-03-10T14:44:06Z</time>
      </trkpt>
      <trkpt lat="42.76449" lon="1.5727">
        <ele>957.61059570312</ele>
        <time>2012-03-10T14:44:10Z</time>
      </trkpt>
      <trkpt lat="42.76454" lon="1.57266">
        <ele>955.68774414062</ele>
        <time>2012-03-10T14:44:14Z</time>
      </trkpt>
      <trkpt lat="42.7646" lon="1.57258">
        <ele>953.76513671875</ele>
        <time>2012-03-10T14:44:20Z</time>
      </trkpt>
      <trkpt lat="42.76464" lon="1.57253">
        <ele>952.32299804688</ele>
        <time>2012-03-10T14:44:24Z</time>
      </trkpt>
      <trkpt lat="42.76473" lon="1.57244">
        <ele>947.5166015625</ele>
        <time>2012-03-10T14:44:32Z</time>
      </trkpt>
      <trkpt lat="42.76475" lon="1.57241">
        <ele>946.55541992188</ele>
        <time>2012-03-10T14:44:34Z</time>
      </trkpt>
      <trkpt lat="42.76483" lon="1.57235">
        <ele>944.63256835938</ele>
        <time>2012-03-10T14:44:40Z</time>
      </trkpt>
      <trkpt lat="42.76487" lon="1.57233">
        <ele>944.63256835938</ele>
        <time>2012-03-10T14:44:43Z</time>
      </trkpt>
      <trkpt lat="42.76497" lon="1.57229">
        <ele>944.15209960938</ele>
        <time>2012-03-10T14:44:50Z</time>
      </trkpt>
      <trkpt lat="42.76503" lon="1.57229">
        <ele>944.15209960938</ele>
        <time>2012-03-10T14:44:53Z</time>
      </trkpt>
      <trkpt lat="42.76511" lon="1.57228">
        <ele>942.71020507812</ele>
        <time>2012-03-10T14:45:00Z</time>
      </trkpt>
      <trkpt lat="42.76516" lon="1.57228">
        <ele>943.67138671875</ele>
        <time>2012-03-10T14:45:04Z</time>
      </trkpt>
      <trkpt lat="42.76525" lon="1.57225">
        <ele>944.15209960938</ele>
        <time>2012-03-10T14:45:11Z</time>
      </trkpt>
      <trkpt lat="42.7653" lon="1.57222">
        <ele>944.63256835938</ele>
        <time>2012-03-10T14:45:16Z</time>
      </trkpt>
      <trkpt lat="42.76535" lon="1.57219">
        <ele>945.11328125</ele>
        <time>2012-03-10T14:45:19Z</time>
      </trkpt>
      <trkpt lat="42.76543" lon="1.57216">
        <ele>944.63256835938</ele>
        <time>2012-03-10T14:45:26Z</time>
      </trkpt>
      <trkpt lat="42.76548" lon="1.57214">
        <ele>946.07470703125</ele>
        <time>2012-03-10T14:45:30Z</time>
      </trkpt>
      <trkpt lat="42.76553" lon="1.57211">
        <ele>946.55541992188</ele>
        <time>2012-03-10T14:45:34Z</time>
      </trkpt>
      <trkpt lat="42.76556" lon="1.5721">
        <ele>946.55541992188</ele>
        <time>2012-03-10T14:45:36Z</time>
      </trkpt>
      <trkpt lat="42.76567" lon="1.57204">
        <ele>945.59399414062</ele>
        <time>2012-03-10T14:45:43Z</time>
      </trkpt>
      <trkpt lat="42.76575" lon="1.57199">
        <ele>945.11328125</ele>
        <time>2012-03-10T14:45:49Z</time>
      </trkpt>
      <trkpt lat="42.76577" lon="1.57199">
        <ele>945.11328125</ele>
        <time>2012-03-10T14:45:50Z</time>
      </trkpt>
      <trkpt lat="42.76585" lon="1.57196">
        <ele>943.19067382812</ele>
        <time>2012-03-10T14:45:56Z</time>
      </trkpt>
      <trkpt lat="42.76587" lon="1.57195">
        <ele>942.2294921875</ele>
        <time>2012-03-10T14:45:57Z</time>
      </trkpt>
      <trkpt lat="42.76593" lon="1.57193">
        <ele>940.78735351562</ele>
        <time>2012-03-10T14:46:02Z</time>
      </trkpt>
      <trkpt lat="42.76599" lon="1.57192">
        <ele>940.78735351562</ele>
        <time>2012-03-10T14:46:07Z</time>
      </trkpt>
      <trkpt lat="42.76604" lon="1.57196">
        <ele>939.82592773438</ele>
        <time>2012-03-10T14:46:12Z</time>
      </trkpt>
      <trkpt lat="42.76608" lon="1.57197">
        <ele>940.30688476562</ele>
        <time>2012-03-10T14:46:16Z</time>
      </trkpt>
      <trkpt lat="42.76614" lon="1.572">
        <ele>941.26806640625</ele>
        <time>2012-03-10T14:46:23Z</time>
      </trkpt>
      <trkpt lat="42.76619" lon="1.57202">
        <ele>941.26806640625</ele>
        <time>2012-03-10T14:46:28Z</time>
      </trkpt>
      <trkpt lat="42.76624" lon="1.57205">
        <ele>942.71020507812</ele>
        <time>2012-03-10T14:46:35Z</time>
      </trkpt>
      <trkpt lat="42.76628" lon="1.57208">
        <ele>945.11328125</ele>
        <time>2012-03-10T14:46:42Z</time>
      </trkpt>
      <trkpt lat="42.76633" lon="1.57212">
        <ele>945.11328125</ele>
        <time>2012-03-10T14:46:48Z</time>
      </trkpt>
      <trkpt lat="42.76636" lon="1.57214">
        <ele>945.59399414062</ele>
        <time>2012-03-10T14:46:52Z</time>
      </trkpt>
      <trkpt lat="42.76641" lon="1.57217">
        <ele>945.59399414062</ele>
        <time>2012-03-10T14:46:57Z</time>
      </trkpt>
      <trkpt lat="42.76649" lon="1.57219">
        <ele>946.55541992188</ele>
        <time>2012-03-10T14:47:04Z</time>
      </trkpt>
      <trkpt lat="42.76651" lon="1.57222">
        <ele>947.5166015625</ele>
        <time>2012-03-10T14:47:08Z</time>
      </trkpt>
      <trkpt lat="42.76654" lon="1.57226">
        <ele>948.47778320312</ele>
        <time>2012-03-10T14:47:16Z</time>
      </trkpt>
      <trkpt lat="42.76653" lon="1.57229">
        <ele>949.919921875</ele>
        <time>2012-03-10T14:47:21Z</time>
      </trkpt>
      <trkpt lat="42.76649" lon="1.57234">
        <ele>951.84252929688</ele>
        <time>2012-03-10T14:47:29Z</time>
      </trkpt>
      <trkpt lat="42.76649" lon="1.57238">
        <ele>952.8037109375</ele>
        <time>2012-03-10T14:47:36Z</time>
      </trkpt>
      <trkpt lat="42.76653" lon="1.57244">
        <ele>953.76513671875</ele>
        <time>2012-03-10T14:47:43Z</time>
      </trkpt>
      <trkpt lat="42.76656" lon="1.57248">
        <ele>953.76513671875</ele>
        <time>2012-03-10T14:47:49Z</time>
      </trkpt>
      <trkpt lat="42.76659" lon="1.57253">
        <ele>955.68774414062</ele>
        <time>2012-03-10T14:47:54Z</time>
      </trkpt>
      <trkpt lat="42.76662" lon="1.57259">
        <ele>957.61059570312</ele>
        <time>2012-03-10T14:48:00Z</time>
      </trkpt>
      <trkpt lat="42.76665" lon="1.57265">
        <ele>959.533203125</ele>
        <time>2012-03-10T14:48:07Z</time>
      </trkpt>
      <trkpt lat="42.76666" lon="1.57271">
        <ele>961.45581054688</ele>
        <time>2012-03-10T14:48:13Z</time>
      </trkpt>
      <trkpt lat="42.7667" lon="1.57276">
        <ele>960.013671875</ele>
        <time>2012-03-10T14:48:19Z</time>
      </trkpt>
      <trkpt lat="42.76672" lon="1.57284">
        <ele>958.09130859375</ele>
        <time>2012-03-10T14:48:25Z</time>
      </trkpt>
      <trkpt lat="42.76674" lon="1.57288">
        <ele>957.61059570312</ele>
        <time>2012-03-10T14:48:32Z</time>
      </trkpt>
      <trkpt lat="42.76677" lon="1.5729">
        <ele>961.45581054688</ele>
        <time>2012-03-10T14:48:37Z</time>
      </trkpt>
      <trkpt lat="42.76683" lon="1.57291">
        <ele>963.37841796875</ele>
        <time>2012-03-10T14:48:42Z</time>
      </trkpt>
      <trkpt lat="42.76685" lon="1.57291">
        <ele>963.37841796875</ele>
        <time>2012-03-10T14:48:43Z</time>
      </trkpt>
      <trkpt lat="42.76692" lon="1.57291">
        <ele>963.85888671875</ele>
        <time>2012-03-10T14:48:50Z</time>
      </trkpt>
      <trkpt lat="42.76699" lon="1.57292">
        <ele>963.85888671875</ele>
        <time>2012-03-10T14:48:55Z</time>
      </trkpt>
      <trkpt lat="42.76706" lon="1.57291">
        <ele>962.4169921875</ele>
        <time>2012-03-10T14:49:01Z</time>
      </trkpt>
      <trkpt lat="42.76711" lon="1.57291">
        <ele>961.9365234375</ele>
        <time>2012-03-10T14:49:04Z</time>
      </trkpt>
      <trkpt lat="42.76716" lon="1.57289">
        <ele>962.89770507812</ele>
        <time>2012-03-10T14:49:08Z</time>
      </trkpt>
      <trkpt lat="42.76722" lon="1.57289">
        <ele>963.85888671875</ele>
        <time>2012-03-10T14:49:12Z</time>
      </trkpt>
      <trkpt lat="42.76725" lon="1.57283">
        <ele>962.4169921875</ele>
        <time>2012-03-10T14:49:17Z</time>
      </trkpt>
      <trkpt lat="42.76727" lon="1.57279">
        <ele>962.89770507812</ele>
        <time>2012-03-10T14:49:20Z</time>
      </trkpt>
      <trkpt lat="42.76727" lon="1.57276">
        <ele>963.37841796875</ele>
        <time>2012-03-10T14:49:23Z</time>
      </trkpt>
      <trkpt lat="42.76728" lon="1.57273">
        <ele>960.49438476562</ele>
        <time>2012-03-10T14:49:30Z</time>
      </trkpt>
      <trkpt lat="42.76728" lon="1.57273">
        <ele>960.013671875</ele>
        <time>2012-03-10T14:49:31Z</time>
      </trkpt>
    </trkseg>
  </trk>
</gpx>